FR8747 / EI-DWO 7700 Squawk Report (8th of November, 2019)

Aircraft B738 Reg No. EI-DWO Age 12 years old
Model 737 Jet engines 2 First flight 05-11-07
Registered 19-11-07 Rollout 26-10-07 Delivered 19-11-07
Construction No. 36079 Line No. 2440 Series 8AS
ADSHEX 4CA61C Airline name Ryanair Owner N/A
Airfield based Dublin~Co Dublin~EI First tracked 2017-07-13 06:43:00
Time Lat Lon Altitude Heading Speed Vertical Rate
2019-11-08 10:49:15 GMT 51.876560 -0.370399 0 354 6 0
2019-11-08 10:49:06 GMT 51.876312 -0.370369 0 33 5 0
2019-11-08 10:48:18 GMT 51.875828 -0.372552 0 81 9 0
2019-11-08 10:47:51 GMT 51.875839 -0.374018 0 75 7 0
2019-11-08 10:47:39 GMT 51.875683 -0.374470 0 33 7 0
2019-11-08 10:47:27 GMT 51.875393 -0.374723 0 36 5 0
2019-11-08 10:47:21 GMT 51.875301 -0.374813 0 45 4 0
2019-11-08 10:47:11 GMT 51.875187 -0.375001 0 59 3 0
2019-11-08 10:47:02 GMT 51.875092 -0.375233 0 70 6 0
2019-11-08 10:46:51 GMT 51.875004 -0.375632 0 75 6 0
2019-11-08 10:46:41 GMT 51.874935 -0.376059 0 73 8 0
2019-11-08 10:46:30 GMT 51.874825 -0.376682 0 75 8 0
2019-11-08 10:46:18 GMT 51.874718 -0.377302 0 75 8 0
2019-11-08 10:46:09 GMT 51.874638 -0.377769 0 75 7 0
2019-11-08 10:45:59 GMT 51.874557 -0.378230 0 75 6 0
2019-11-08 10:45:50 GMT 51.874477 -0.378676 0 75 6 0
2019-11-08 10:45:29 GMT 51.874298 -0.379658 0 67 8 0
2019-11-08 10:45:08 GMT 51.873653 -0.380661 0 25 12 0
2019-11-08 10:44:54 GMT 51.873009 -0.381012 0 348 11 0
2019-11-08 10:44:26 GMT 51.872833 -0.379009 0 253 23 0
2019-11-08 10:44:07 GMT 51.873985 -0.372257 1,725 255 96 0
2019-11-08 10:43:55 GMT 51.875484 -0.363617 1,725 255 147 -832
2019-11-08 10:43:46 GMT 51.877441 -0.352379 775 254 145 -832
2019-11-08 10:43:42 GMT 51.877998 -0.349274 800 254 145 -960
2019-11-08 10:43:36 GMT 51.879116 -0.342941 925 254 145 -896
2019-11-08 10:43:33 GMT 51.879723 -0.339661 925 255 147 -512
2019-11-08 10:43:30 GMT 51.880325 -0.336122 950 255 148 -448
2019-11-08 10:43:27 GMT 51.880699 -0.333786 1,775 255 146 -768
2019-11-08 10:43:24 GMT 51.881817 -0.327377 1,725 255 147 -832
2019-11-08 10:43:21 GMT 51.881817 -0.327377 1,075 255 149 -896
2019-11-08 10:43:15 GMT 51.883118 -0.319865 1,175 255 148 -832
2019-11-08 10:43:09 GMT 51.884033 -0.314298 1,375 255 146 -896
2019-11-08 10:43:04 GMT 51.884903 -0.309028 1,325 255 146 -896
2019-11-08 10:42:58 GMT 51.885914 -0.303116 1,400 255 146 -832
2019-11-08 10:42:53 GMT 51.886826 -0.297819 1,475 255 146 -768
2019-11-08 10:42:49 GMT 51.887604 -0.293290 1,525 255 147 -832
2019-11-08 10:42:44 GMT 51.888748 -0.286684 1,600 255 147 -832
2019-11-08 10:42:38 GMT 51.889847 -0.280374 1,700 255 148 -768
2019-11-08 10:42:33 GMT 51.890568 -0.276108 2,200 255 155 -896
2019-11-08 10:42:29 GMT 51.891220 -0.272369 1,775 255 148 -768
2019-11-08 10:42:26 GMT 51.892570 -0.264282 2,500 255 166 -960
2019-11-08 10:42:22 GMT 51.892570 -0.264282 1,925 255 153 -832
2019-11-08 10:42:19 GMT 51.893234 -0.260406 1,950 255 149 -832
2019-11-08 10:42:16 GMT 51.894341 -0.254020 2,000 255 155 -896
2019-11-08 10:42:13 GMT 51.894341 -0.254020 2,050 255 151 -896
2019-11-08 10:42:09 GMT 51.894993 -0.250253 2,100 256 152 -896
2019-11-08 10:42:05 GMT 51.895828 -0.245231 2,125 255 153 -832
2019-11-08 10:42:02 GMT 51.896210 -0.243073 2,150 255 155 -896
2019-11-08 10:41:59 GMT 51.897598 -0.234715 2,250 255 156 -896
2019-11-08 10:41:55 GMT 51.897598 -0.234715 2,275 255 157 -832
2019-11-08 10:41:52 GMT 51.898205 -0.231184 2,300 255 158 -832
2019-11-08 10:41:49 GMT 51.898819 -0.227661 2,375 255 159 -832
2019-11-08 10:41:46 GMT 51.899414 -0.223999 2,425 255 160 -832
2019-11-08 10:41:43 GMT 51.900558 -0.217514 2,475 255 162 -896
2019-11-08 10:41:40 GMT 51.900558 -0.217514 2,500 255 162 -896
2019-11-08 10:41:37 GMT 51.901199 -0.213776 2,500 255 163 -896
2019-11-08 10:41:34 GMT 51.901840 -0.210190 2,550 255 167 -1024
2019-11-08 10:41:31 GMT 51.902393 -0.206778 2,625 255 167 -960
2019-11-08 10:41:27 GMT 51.903091 -0.202933 2,675 255 171 -832
2019-11-08 10:41:24 GMT 51.903790 -0.198931 2,700 255 172 -832
2019-11-08 10:41:21 GMT 51.904587 -0.194244 2,825 255 175 -1024
2019-11-08 10:41:18 GMT 51.905186 -0.190770 2,825 255 175 -1024
2019-11-08 10:41:15 GMT 51.905838 -0.187003 2,925 255 177 -1024
2019-11-08 10:41:12 GMT 51.906418 -0.183563 3,325 254 181 -832
2019-11-08 10:41:09 GMT 51.907188 -0.179234 3,175 254 182 64
2019-11-08 10:41:06 GMT 51.907974 -0.174713 3,025 254 181 -896
2019-11-08 10:40:58 GMT 51.909561 -0.165501 3,150 254 181 -704
2019-11-08 10:40:55 GMT 51.910446 -0.160904 3,175 261 181 -512
2019-11-08 10:40:52 GMT 51.911362 -0.155869 3,200 254 182 64
2019-11-08 10:40:49 GMT 51.911911 -0.152740 3,200 254 182 64
2019-11-08 10:40:46 GMT 51.912552 -0.149384 3,175 254 182 64
2019-11-08 10:40:43 GMT 51.913239 -0.145569 3,175 254 182 64
2019-11-08 10:40:40 GMT 51.914108 -0.140991 3,175 254 182 64
2019-11-08 10:40:37 GMT 51.914639 -0.138192 3,175 254 182 0
2019-11-08 10:40:34 GMT 51.916214 -0.129166 3,200 255 183 -448
2019-11-08 10:40:31 GMT 51.916214 -0.129166 3,225 256 183 -512
2019-11-08 10:40:28 GMT 51.917244 -0.122890 3,275 258 182 -448
2019-11-08 10:40:25 GMT 51.917862 -0.118561 3,250 258 182 -448
2019-11-08 10:40:22 GMT 51.917862 -0.118561 3,275 259 181 -448
2019-11-08 10:40:19 GMT 51.918365 -0.114288 3,300 261 181 -512
2019-11-08 10:40:16 GMT 51.919247 -0.105547 3,350 262 179 -448
2019-11-08 10:40:13 GMT 51.919647 -0.101395 3,375 262 179 -512
2019-11-08 10:40:10 GMT 51.919647 -0.101395 3,400 263 179 -512
2019-11-08 10:40:07 GMT 51.920364 -0.093305 3,425 263 179 -512
2019-11-08 10:40:04 GMT 51.920364 -0.093305 3,450 264 179 -512
2019-11-08 10:39:58 GMT 51.920792 -0.086746 3,500 266 178 -512
2019-11-08 10:39:55 GMT 51.921021 -0.081711 3,500 269 178 -448
2019-11-08 10:39:52 GMT 51.921066 -0.078430 4,050 273 177 -512
2019-11-08 10:39:49 GMT 51.921013 -0.073138 3,575 275 176 -512
2019-11-08 10:39:46 GMT 51.920837 -0.069962 3,600 278 175 -512
2019-11-08 10:39:43 GMT 51.920425 -0.065536 3,625 282 175 -512
2019-11-08 10:39:37 GMT 51.919525 -0.058463 4,400 282 182 -1216
2019-11-08 10:39:34 GMT 51.919144 -0.055237 3,675 282 175 -512
2019-11-08 10:39:31 GMT 51.918594 -0.050659 3,725 282 175 -512
2019-11-08 10:39:28 GMT 51.918083 -0.046770 3,775 282 175 -512
2019-11-08 10:39:24 GMT 51.917011 -0.038060 3,775 282 176 -512
2019-11-08 10:39:21 GMT 51.917011 -0.038060 3,850 281 178 -512
2019-11-08 10:39:18 GMT 51.916534 -0.034180 3,825 282 177 -512
2019-11-08 10:39:15 GMT 51.916031 -0.029755 3,850 281 178 -576
2019-11-08 10:39:11 GMT 51.915474 -0.025269 3,900 281 178 -576
2019-11-08 10:39:07 GMT 51.914867 -0.019775 3,925 281 179 -640
2019-11-08 10:39:04 GMT 51.914474 -0.016556 3,925 281 180 -832
2019-11-08 10:39:01 GMT 51.913422 -0.007706 4,125 282 181 -960
2019-11-08 10:38:55 GMT 51.912964 -0.003967 4,125 282 181 -1024
2019-11-08 10:38:52 GMT 51.911888 0.004395 4,400 282 182 -1216
2019-11-08 10:38:45 GMT 51.911087 0.010605 4,275 282 182 -1088
2019-11-08 10:38:42 GMT 51.910812 0.012512 4,375 282 182 -1216
2019-11-08 10:38:39 GMT 51.910027 0.018520 4,450 282 182 -1216
2019-11-08 10:38:35 GMT 51.909485 0.022736 4,525 282 182 -1216
2019-11-08 10:38:32 GMT 51.909027 0.026627 4,575 282 182 -1216
2019-11-08 10:38:29 GMT 51.908295 0.032349 4,625 282 181 -1152
2019-11-08 10:38:26 GMT 51.907887 0.035706 4,675 283 182 -960
2019-11-08 10:38:23 GMT 51.906677 0.044102 4,725 285 181 -896
2019-11-08 10:38:20 GMT 51.906143 0.046768 4,800 294 179 -1152
2019-11-08 10:38:17 GMT 51.906143 0.046768 4,825 295 178 -1216
2019-11-08 10:38:14 GMT 51.905186 0.050459 4,900 311 175 -1088
2019-11-08 10:38:11 GMT 51.904129 0.053406 4,900 306 175 -1152
2019-11-08 10:38:08 GMT 51.902573 0.056610 5,000 328 173 -1024
2019-11-08 10:38:04 GMT 51.899872 0.060501 5,050 328 173 -1024
2019-11-08 10:38:01 GMT 51.898178 0.062256 5,425 50 189 -896
2019-11-08 10:37:58 GMT 51.892849 0.065155 5,175 347 174 -960
2019-11-08 10:37:55 GMT 51.892849 0.065155 5,250 0 176 -832
2019-11-08 10:37:51 GMT 51.889778 0.065613 5,275 0 176 -832
2019-11-08 10:37:47 GMT 51.886551 0.065101 5,325 15 179 -832
2019-11-08 10:37:44 GMT 51.883850 0.063839 5,525 30 184 -832
2019-11-08 10:37:40 GMT 51.882004 0.062637 5,375 25 182 -832
2019-11-08 10:37:37 GMT 51.878723 0.059460 5,475 40 186 -896
2019-11-08 10:37:34 GMT 51.877209 0.057373 5,500 45 188 -896
2019-11-08 10:37:31 GMT 51.874878 0.053299 5,525 50 189 -896
2019-11-08 10:37:28 GMT 51.874138 0.051651 5,600 60 192 -1024
2019-11-08 10:37:25 GMT 51.872601 0.047379 6,600 76 197 -1024
2019-11-08 10:37:21 GMT 51.870644 0.036697 5,725 79 198 -960
2019-11-08 10:37:18 GMT 51.870644 0.036697 5,775 85 200 -704
2019-11-08 10:37:15 GMT 51.870438 0.033107 5,775 88 202 -704
2019-11-08 10:37:12 GMT 51.870529 0.028431 5,850 97 205 -704
2019-11-08 10:37:09 GMT 51.871765 0.018781 5,900 106 209 -640
2019-11-08 10:37:06 GMT 51.871765 0.018781 5,900 114 213 -512
2019-11-08 10:37:02 GMT 51.873093 0.013733 5,950 119 216 -384
2019-11-08 10:36:59 GMT 51.875252 0.007935 5,950 125 220 -576
2019-11-08 10:36:56 GMT 51.876183 0.005875 6,000 131 223 -576
2019-11-08 10:36:53 GMT 51.878586 0.001559 6,000 136 224 -576
2019-11-08 10:36:50 GMT 51.883259 -0.004425 6,125 152 230 -704
2019-11-08 10:36:47 GMT 51.883259 -0.004425 6,100 168 232 -1088
2019-11-08 10:36:44 GMT 51.890396 -0.009947 6,150 156 231 -896
2019-11-08 10:36:40 GMT 51.890396 -0.009947 6,200 163 232 -1024
2019-11-08 10:36:37 GMT 51.893600 -0.011368 6,300 168 232 -1088
2019-11-08 10:36:34 GMT 51.899826 -0.012665 6,325 177 234 -640
2019-11-08 10:36:31 GMT 51.903046 -0.012948 6,325 177 234 -640
2019-11-08 10:36:28 GMT 51.903046 -0.012948 6,500 178 235 -1088
2019-11-08 10:36:24 GMT 51.907974 -0.013275 6,400 178 235 -1024
2019-11-08 10:36:21 GMT 51.914032 -0.013576 6,500 178 235 -1024
2019-11-08 10:36:15 GMT 51.917633 -0.013809 6,600 178 236 -832
2019-11-08 10:36:12 GMT 51.920334 -0.013885 7,075 179 244 -896
2019-11-08 10:36:09 GMT 51.923584 -0.014114 6,625 178 237 -768
2019-11-08 10:36:05 GMT 51.927750 -0.014267 6,750 178 238 -896
2019-11-08 10:36:02 GMT 51.931000 -0.014343 6,950 178 239 -960
2019-11-08 10:35:59 GMT 51.937408 -0.014572 6,825 179 239 -1024
2019-11-08 10:35:56 GMT 51.940796 -0.014648 6,850 179 240 -1024
2019-11-08 10:35:53 GMT 51.940796 -0.014648 6,900 179 242 -768
2019-11-08 10:35:50 GMT 51.945545 -0.014753 6,950 179 241 -768
2019-11-08 10:35:47 GMT 51.948257 -0.014801 6,975 179 241 -768
2019-11-08 10:35:44 GMT 51.951740 -0.014832 7,025 179 243 -768
2019-11-08 10:35:41 GMT 51.954483 -0.014877 7,250 179 244 -896
2019-11-08 10:35:38 GMT 51.961487 -0.014954 7,625 155 241 -1280
2019-11-08 10:35:35 GMT 51.961487 -0.014954 7,175 179 245 -1088
2019-11-08 10:35:32 GMT 51.964462 -0.014954 7,275 161 241 -1216
2019-11-08 10:35:29 GMT 51.968399 -0.015030 7,250 179 246 -1152
2019-11-08 10:35:26 GMT 51.971432 -0.015145 7,325 179 246 -1216
2019-11-08 10:35:23 GMT 51.976135 -0.015259 7,375 178 246 -1280
2019-11-08 10:35:20 GMT 51.977669 -0.015302 7,475 176 245 -1344
2019-11-08 10:35:17 GMT 51.981857 -0.015640 7,500 175 244 -1280
2019-11-08 10:35:14 GMT 51.984604 -0.016098 7,525 171 243 -1344
2019-11-08 10:35:11 GMT 51.988037 -0.017090 7,600 169 243 -1280
2019-11-08 10:35:08 GMT 51.991776 -0.018834 7,700 157 242 -1216
2019-11-08 10:35:05 GMT 51.995499 -0.021502 7,800 145 239 -1280
2019-11-08 10:35:01 GMT 51.998898 -0.024876 7,975 136 237 -1088
2019-11-08 10:34:57 GMT 52.001923 -0.028800 7,975 136 237 -1088
2019-11-08 10:34:54 GMT 52.004562 -0.033264 7,975 124 235 -960
2019-11-08 10:34:51 GMT 52.008347 -0.042533 8,050 119 235 -1024
2019-11-08 10:34:48 GMT 52.008347 -0.042533 8,075 115 234 -1024
2019-11-08 10:34:45 GMT 52.010441 -0.051557 8,200 106 233 -1152
2019-11-08 10:34:42 GMT 52.010971 -0.056076 8,200 102 232 -1152
2019-11-08 10:34:39 GMT 52.011292 -0.060425 8,900 93 230 -1152
2019-11-08 10:34:36 GMT 52.011246 -0.066452 8,400 78 227 -1216
2019-11-08 10:34:33 GMT 52.011246 -0.066452 8,375 80 228 -1216
2019-11-08 10:34:30 GMT 52.010834 -0.071487 8,475 73 227 -1216
2019-11-08 10:34:27 GMT 52.009872 -0.077286 8,475 71 226 -1216
2019-11-08 10:34:23 GMT 52.008453 -0.082626 8,600 62 225 -1216
2019-11-08 10:34:20 GMT 52.006851 -0.087128 8,600 55 224 -1280
2019-11-08 10:34:17 GMT 52.005249 -0.090714 8,775 46 223 -1344
2019-11-08 10:34:14 GMT 52.002731 -0.094910 8,750 30 221 -1344
2019-11-08 10:34:11 GMT 51.999920 -0.098485 8,850 30 221 -1344
2019-11-08 10:34:08 GMT 51.997173 -0.101153 8,900 25 220 -1280
2019-11-08 10:34:05 GMT 51.994904 -0.102768 9,275 11 220 -1536
2019-11-08 10:34:02 GMT 51.991821 -0.104449 9,025 11 220 -1472
2019-11-08 10:33:59 GMT 51.989120 -0.105233 9,125 7 220 -1600
2019-11-08 10:33:56 GMT 51.984837 -0.105626 9,300 353 219 -1344
2019-11-08 10:33:52 GMT 51.978378 -0.104752 9,350 352 220 -1344
2019-11-08 10:33:49 GMT 51.974945 -0.103607 9,425 347 220 -1472
2019-11-08 10:33:46 GMT 51.974945 -0.103607 9,450 346 220 -1472
2019-11-08 10:33:43 GMT 51.972500 -0.102408 9,475 341 221 -1408
2019-11-08 10:33:40 GMT 51.970459 -0.101013 9,675 330 224 -1024
2019-11-08 10:33:37 GMT 51.966541 -0.097386 9,400 294 235 960
2019-11-08 10:33:34 GMT 51.962082 -0.091171 9,725 314 229 -1024
2019-11-08 10:33:31 GMT 51.962082 -0.091171 9,725 308 230 -768
2019-11-08 10:33:28 GMT 51.959930 -0.086975 9,750 306 230 -576
2019-11-08 10:33:25 GMT 51.957932 -0.082084 9,400 299 232 384
2019-11-08 10:33:22 GMT 51.957138 -0.079803 9,750 296 233 960
2019-11-08 10:33:19 GMT 51.955490 -0.074310 9,700 295 234 960
2019-11-08 10:33:16 GMT 51.953880 -0.068429 9,650 294 235 960
2019-11-08 10:33:13 GMT 51.952950 -0.064976 9,350 294 232 960
2019-11-08 10:33:10 GMT 51.951691 -0.060189 9,575 294 234 960
2019-11-08 10:33:07 GMT 51.950623 -0.056187 9,475 294 234 960
2019-11-08 10:33:04 GMT 51.948620 -0.048811 9,450 294 234 896
2019-11-08 10:33:01 GMT 51.947365 -0.044259 9,225 294 234 960
2019-11-08 10:32:58 GMT 51.946060 -0.039315 9,350 294 234 896
2019-11-08 10:32:55 GMT 51.945175 -0.036019 9,325 294 234 960
2019-11-08 10:32:52 GMT 51.942673 -0.026703 9,200 294 233 960
2019-11-08 10:32:46 GMT 51.940979 -0.020370 9,175 294 233 896
2019-11-08 10:32:40 GMT 51.938644 -0.011673 9,100 294 233 960
2019-11-08 10:32:37 GMT 51.937401 -0.006906 9,050 294 233 960
2019-11-08 10:32:34 GMT 51.936081 -0.002060 8,975 294 233 896
2019-11-08 10:32:31 GMT 51.934978 0.002040 8,950 294 233 896
2019-11-08 10:32:28 GMT 51.933632 0.006984 8,900 295 232 832
2019-11-08 10:32:25 GMT 51.932190 0.012360 8,775 295 232 960
2019-11-08 10:32:22 GMT 51.930931 0.016872 8,825 295 232 960
2019-11-08 10:32:19 GMT 51.929581 0.021667 8,775 295 232 960
2019-11-08 10:32:15 GMT 51.927750 0.028229 8,525 295 230 1344
2019-11-08 10:32:12 GMT 51.926468 0.032883 8,600 295 230 1344
2019-11-08 10:32:09 GMT 51.925156 0.037667 8,450 294 231 1984
2019-11-08 10:32:06 GMT 51.924179 0.041120 8,550 294 230 1472
2019-11-08 10:32:03 GMT 51.921112 0.052261 8,275 294 230 1344
2019-11-08 10:32:00 GMT 51.921112 0.052261 8,375 294 230 2176
2019-11-08 10:31:57 GMT 51.920036 0.056266 8,150 294 230 1088
2019-11-08 10:31:54 GMT 51.918869 0.060654 8,050 295 226 192
2019-11-08 10:31:51 GMT 51.917130 0.067139 8,175 294 229 1024
2019-11-08 10:31:48 GMT 51.916260 0.070190 8,100 295 226 192
2019-11-08 10:31:45 GMT 51.914886 0.075150 8,075 295 226 192
2019-11-08 10:31:42 GMT 51.912369 0.084152 8,025 295 226 192
2019-11-08 10:31:36 GMT 51.910950 0.089264 8,000 296 227 -64
2019-11-08 10:31:30 GMT 51.907974 0.099564 8,000 296 226 0
2019-11-08 10:31:27 GMT 51.906876 0.103378 8,000 296 226 0
2019-11-08 10:31:24 GMT 51.905365 0.108566 8,000 296 227 0
2019-11-08 10:31:21 GMT 51.904221 0.112381 8,000 296 227 -64
2019-11-08 10:31:18 GMT 51.901276 0.122105 8,000 297 228 0
2019-11-08 10:31:15 GMT 51.899414 0.128403 8,000 297 228 704
2019-11-08 10:31:11 GMT 51.899414 0.128403 8,000 297 228 128
2019-11-08 10:31:08 GMT 51.898544 0.131302 7,975 297 228 512
2019-11-08 10:31:05 GMT 51.897308 0.135345 7,925 297 228 896
2019-11-08 10:31:02 GMT 51.895317 0.141959 7,900 297 228 896
2019-11-08 10:30:59 GMT 51.894154 0.145647 7,775 297 228 896
2019-11-08 10:30:56 GMT 51.892338 0.151749 7,800 297 228 896
2019-11-08 10:30:53 GMT 51.891361 0.155029 7,750 297 227 832
2019-11-08 10:30:50 GMT 51.889870 0.159836 7,725 297 227 832
2019-11-08 10:30:47 GMT 51.888706 0.163651 7,650 297 227 832
2019-11-08 10:30:43 GMT 51.886597 0.170659 7,650 297 227 832
2019-11-08 10:30:40 GMT 51.885075 0.175629 7,575 296 225 832
2019-11-08 10:30:37 GMT 51.883392 0.181200 7,550 296 225 832
2019-11-08 10:30:34 GMT 51.881351 0.187988 7,500 296 225 832
2019-11-08 10:30:31 GMT 51.881351 0.187988 7,450 297 224 896
2019-11-08 10:30:27 GMT 51.879593 0.193671 7,275 297 224 896
2019-11-08 10:30:24 GMT 51.877583 0.200272 7,350 297 224 896
2019-11-08 10:30:21 GMT 51.876835 0.202866 7,050 297 222 896
2019-11-08 10:30:18 GMT 51.874928 0.209198 7,275 297 221 896
2019-11-08 10:30:15 GMT 51.873997 0.212250 7,250 297 221 896
2019-11-08 10:30:12 GMT 51.872681 0.216460 7,200 297 220 832
2019-11-08 10:30:09 GMT 51.871017 0.221863 7,125 297 220 832
2019-11-08 10:30:03 GMT 51.867107 0.234680 7,025 292 220 832
2019-11-08 10:30:00 GMT 51.867107 0.234680 7,000 296 220 832
2019-11-08 10:29:57 GMT 51.865944 0.238571 6,975 296 220 832
2019-11-08 10:29:54 GMT 51.864441 0.243778 6,925 294 219 832
2019-11-08 10:29:51 GMT 51.863342 0.247860 6,900 293 219 832
2019-11-08 10:29:47 GMT 51.861847 0.253830 6,850 292 219 832
2019-11-08 10:29:44 GMT 51.860775 0.258331 6,800 292 219 832
2019-11-08 10:29:40 GMT 51.859314 0.264340 6,750 292 219 832
2019-11-08 10:29:37 GMT 51.857895 0.270204 6,575 292 220 768
2019-11-08 10:29:34 GMT 51.856796 0.274732 5,675 292 220 768
2019-11-08 10:29:30 GMT 51.855656 0.279312 6,600 292 220 768
2019-11-08 10:29:27 GMT 51.854370 0.284680 6,600 292 220 768
2019-11-08 10:29:24 GMT 51.853233 0.289230 6,525 292 220 768
2019-11-08 10:29:21 GMT 51.851761 0.295220 6,475 292 220 832
2019-11-08 10:29:18 GMT 51.850765 0.299377 6,225 292 219 1088
2019-11-08 10:29:15 GMT 51.848419 0.308879 6,325 292 218 1536
2019-11-08 10:29:09 GMT 51.847462 0.312881 6,275 270 217 1664
2019-11-08 10:29:06 GMT 51.845646 0.320282 6,150 292 218 1600
2019-11-08 10:28:59 GMT 51.843971 0.327072 5,400 292 218 1664
2019-11-08 10:28:56 GMT 51.842945 0.331345 5,925 292 219 1664
2019-11-08 10:28:53 GMT 51.841782 0.335999 5,825 292 218 1664
2019-11-08 10:28:49 GMT 51.840572 0.341187 5,700 291 217 1600
2019-11-08 10:28:46 GMT 51.838943 0.348282 5,675 290 217 1600
2019-11-08 10:28:43 GMT 51.838291 0.351486 5,550 286 216 1600
2019-11-08 10:28:40 GMT 51.837387 0.356462 5,475 281 216 1664
2019-11-08 10:28:37 GMT 51.836700 0.364553 4,025 240 219 1728
2019-11-08 10:28:31 GMT 51.836929 0.370714 5,225 260 218 1664
2019-11-08 10:28:28 GMT 51.837616 0.376208 5,000 249 219 1664
2019-11-08 10:28:25 GMT 51.838257 0.379622 5,050 247 218 1664
2019-11-08 10:28:22 GMT 51.839264 0.383408 5,000 242 219 1728
2019-11-08 10:28:19 GMT 51.841095 0.388382 4,725 229 220 1856
2019-11-08 10:28:16 GMT 51.842667 0.391846 4,800 229 220 1856
2019-11-08 10:28:13 GMT 51.845413 0.396805 4,700 226 219 2240
2019-11-08 10:28:10 GMT 51.849651 0.403671 4,450 225 216 3200
2019-11-08 10:28:07 GMT 51.852402 0.408201 4,025 226 215 3136
2019-11-08 10:28:03 GMT 51.852402 0.408201 4,250 226 216 3264
2019-11-08 10:28:00 GMT 51.854214 0.411148 4,150 225 222 2752
2019-11-08 10:27:57 GMT 51.855934 0.413895 4,025 226 218 3264
2019-11-08 10:27:54 GMT 51.858913 0.418854 3,650 225 222 2688
2019-11-08 10:27:47 GMT 51.864441 0.427056 3,475 220 226 2176
2019-11-08 10:27:44 GMT 51.868923 0.431595 3,325 206 229 1152
2019-11-08 10:27:38 GMT 51.871902 0.433655 3,275 201 230 960
2019-11-08 10:27:35 GMT 51.875107 0.435073 3,200 187 230 448
2019-11-08 10:27:32 GMT 51.878952 0.435890 3,200 182 230 320
2019-11-08 10:27:29 GMT 51.882515 0.435867 3,200 175 229 128
2019-11-08 10:27:26 GMT 51.884144 0.435562 3,200 135 226 0
2019-11-08 10:27:23 GMT 51.887970 0.434331 3,200 161 229 0
2019-11-08 10:27:19 GMT 51.891640 0.432129 3,200 157 228 -64
2019-11-08 10:27:16 GMT 51.895317 0.428938 3,200 135 226 0
2019-11-08 10:27:12 GMT 51.897583 0.426407 3,200 141 227 128
2019-11-08 10:27:08 GMT 51.901184 0.421326 3,200 135 226 0
2019-11-08 10:27:01 GMT 51.906399 0.413086 3,200 135 226 0
2019-11-08 10:26:58 GMT 51.910774 0.406102 3,200 135 226 0
2019-11-08 10:26:52 GMT 51.913330 0.401993 3,200 135 227 0
2019-11-08 10:26:48 GMT 51.916489 0.396881 3,200 135 227 0
2019-11-08 10:26:45 GMT 51.920700 0.390091 3,200 135 228 0
2019-11-08 10:26:42 GMT 51.920700 0.390091 3,175 135 228 0
2019-11-08 10:26:39 GMT 51.922623 0.387039 3,200 135 229 0
2019-11-08 10:26:35 GMT 51.925827 0.381851 3,200 135 229 64
2019-11-08 10:26:32 GMT 51.928741 0.377066 3,175 134 230 0
2019-11-08 10:26:27 GMT 51.934799 0.366745 3,175 130 230 -64
2019-11-08 10:26:24 GMT 51.934799 0.366745 3,175 129 231 -64
2019-11-08 10:26:21 GMT 51.936539 0.363159 3,175 119 230 0
2019-11-08 10:26:18 GMT 51.937401 0.361136 3,175 116 230 0
2019-11-08 10:26:15 GMT 51.939148 0.356216 3,175 114 230 0
2019-11-08 10:26:12 GMT 51.940567 0.350571 2,775 55 221 -896
2019-11-08 10:26:09 GMT 51.941402 0.345598 3,175 101 230 0
2019-11-08 10:26:05 GMT 51.941940 0.339050 3,175 90 229 0
2019-11-08 10:26:02 GMT 51.941895 0.333023 3,200 76 226 -576
2019-11-08 10:25:58 GMT 51.941452 0.328020 3,200 76 226 -576
2019-11-08 10:25:55 GMT 51.940338 0.321960 3,300 64 223 -960
2019-11-08 10:25:52 GMT 51.939171 0.317662 3,375 60 222 -960
2019-11-08 10:25:49 GMT 51.937588 0.313346 3,325 37 220 2048
2019-11-08 10:25:44 GMT 51.931721 0.302909 3,350 44 220 -192
2019-11-08 10:25:41 GMT 51.931721 0.302909 3,400 38 221 576
2019-11-08 10:25:38 GMT 51.929813 0.300476 3,400 36 221 896
2019-11-08 10:25:35 GMT 51.927338 0.297546 3,250 41 220 3072
2019-11-08 10:25:32 GMT 51.920410 0.288627 3,000 41 220 2816
2019-11-08 10:25:27 GMT 51.920410 0.288627 3,000 41 220 3072
2019-11-08 10:25:24 GMT 51.918823 0.286255 2,975 41 221 3392
2019-11-08 10:25:20 GMT 51.915848 0.281982 2,600 40 224 3904
2019-11-08 10:25:17 GMT 51.913422 0.278702 2,425 40 225 3328
2019-11-08 10:25:14 GMT 51.911007 0.275364 2,250 41 223 2304
2019-11-08 10:25:11 GMT 51.908352 0.271598 2,100 42 222 1920
2019-11-08 10:25:07 GMT 51.905731 0.267563 2,025 43 212 1664
2019-11-08 10:25:04 GMT 51.903259 0.263748 1,950 43 210 1600
2019-11-08 10:25:01 GMT 51.901108 0.260315 1,900 43 200 1536
2019-11-08 10:24:58 GMT 51.899555 0.257943 1,825 43 202 1472
2019-11-08 10:24:55 GMT 51.897537 0.254822 1,750 43 196 1536
2019-11-08 10:24:51 GMT 51.894470 0.250092 1,675 43 184 1216
2019-11-08 10:24:48 GMT 51.892181 0.246524 1,575 43 176 1408
2019-11-08 10:24:43 GMT 51.888149 0.240250 1,450 43 176 1408
2019-11-08 10:24:40 GMT 51.888149 0.240250 1,400 43 172 1664
2019-11-08 10:24:37 GMT 51.886238 0.237274 1,325 43 164 1408
2019-11-08 10:24:32 GMT 51.883541 0.233154 1,200 43 161 1472
2019-11-08 10:24:29 GMT 51.882095 0.230865 1,125 43 157 1792
2019-11-08 10:24:25 GMT 51.879910 0.227509 950 44 149 1664
2019-11-08 10:24:22 GMT 51.878235 0.224915 925 43 149 1664
2019-11-08 10:24:19 GMT 51.876938 0.222919 850 44 149 2176
2019-11-08 10:24:16 GMT 51.874969 0.219727 700 43 144 448
2019-11-08 10:24:13 GMT 51.873779 0.217871 700 43 143 -384
2019-11-08 10:24:05 GMT 51.870117 0.212378 775 43 141 -768
2019-11-08 10:24:01 GMT 51.868011 0.209186 825 42 140 -768
2019-11-08 10:23:58 GMT 51.866455 0.206909 875 42 138 -704
2019-11-08 10:23:55 GMT 51.865150 0.204926 900 42 137 -704
2019-11-08 10:23:52 GMT 51.860588 0.198135 1,000 42 134 -768
2019-11-08 10:23:45 GMT 51.860588 0.198135 1,025 42 132 -768
2019-11-08 10:23:41 GMT 51.858868 0.195541 1,100 43 131 -704
2019-11-08 10:23:38 GMT 51.857471 0.193405 1,125 43 130 -704
2019-11-08 10:23:33 GMT 51.855331 0.190182 1,150 43 130 -704
2019-11-08 10:23:30 GMT 51.854027 0.188217 1,175 43 130 -704
2019-11-08 10:23:25 GMT 51.851746 0.184860 1,300 42 130 -704
2019-11-08 10:23:20 GMT 51.849472 0.181497 1,300 42 130 -640
2019-11-08 10:23:14 GMT 51.846996 0.177841 1,400 42 130 -640
2019-11-08 10:23:10 GMT 51.845078 0.174890 1,550 42 132 -640
2019-11-08 10:23:05 GMT 51.841362 0.169220 1,525 43 132 -704
2019-11-08 10:23:01 GMT 51.841362 0.169220 1,575 42 132 -704
2019-11-08 10:22:58 GMT 51.839546 0.166473 1,725 42 132 -768
2019-11-08 10:22:55 GMT 51.838257 0.164572 1,600 42 132 -704
2019-11-08 10:22:52 GMT 51.837082 0.162811 1,650 42 132 -640
2019-11-08 10:22:49 GMT 51.835693 0.160712 1,775 42 132 -640
2019-11-08 10:22:45 GMT 51.833359 0.157223 1,725 42 132 -704
2019-11-08 10:22:42 GMT 51.832535 0.155961 1,775 42 133 -704
2019-11-08 10:22:39 GMT 51.831161 0.153957 1,800 42 133 -704
2019-11-08 10:22:35 GMT 51.829308 0.151291 1,850 42 135 -704
2019-11-08 10:22:31 GMT 51.827591 0.148761 1,900 42 138 -640
2019-11-08 10:22:28 GMT 51.826328 0.146866 2,050 42 142 -704
2019-11-08 10:22:24 GMT 51.824047 0.143433 1,975 43 143 -704
2019-11-08 10:22:20 GMT 51.821579 0.139694 2,025 42 144 -768
2019-11-08 10:22:17 GMT 51.820816 0.138591 2,075 42 147 -896
2019-11-08 10:22:14 GMT 51.818832 0.135574 2,125 42 149 -960
2019-11-08 10:22:11 GMT 51.817669 0.133896 2,225 42 150 -640
2019-11-08 10:22:08 GMT 51.816147 0.131613 2,200 42 152 128
2019-11-08 10:22:05 GMT 51.814594 0.129318 2,200 42 152 128
2019-11-08 10:22:01 GMT 51.812485 0.126194 2,200 42 154 192
2019-11-08 10:21:58 GMT 51.810974 0.123893 2,200 42 155 0
2019-11-08 10:21:54 GMT 51.808964 0.120926 2,200 42 155 0
2019-11-08 10:21:50 GMT 51.806808 0.117583 2,200 290 204 64
2019-11-08 10:21:47 GMT 51.805481 0.115653 2,200 42 155 0
2019-11-08 10:21:43 GMT 51.802677 0.111465 2,200 42 156 64
2019-11-08 10:21:38 GMT 51.800308 0.107933 2,200 42 155 0
2019-11-08 10:21:35 GMT 51.798817 0.105667 2,200 42 154 0
2019-11-08 10:21:32 GMT 51.797371 0.103531 2,200 42 155 0
2019-11-08 10:21:28 GMT 51.795418 0.100632 2,200 42 154 0
2019-11-08 10:21:25 GMT 51.793259 0.097392 2,200 42 155 0
2019-11-08 10:21:22 GMT 51.791794 0.095240 2,200 42 155 64
2019-11-08 10:21:18 GMT 51.788544 0.090489 2,200 42 155 64
2019-11-08 10:21:15 GMT 51.788544 0.090489 2,200 43 162 -64
2019-11-08 10:21:12 GMT 51.786385 0.087357 2,200 41 155 -64
2019-11-08 10:21:07 GMT 51.783417 0.083066 2,200 41 157 0
2019-11-08 10:21:04 GMT 51.782429 0.081635 2,200 44 166 -128
2019-11-08 10:21:01 GMT 51.780846 0.079269 2,200 42 158 -64
2019-11-08 10:20:58 GMT 51.778702 0.076162 2,200 42 162 -64
2019-11-08 10:20:54 GMT 51.776413 0.072673 2,200 43 162 -64
2019-11-08 10:20:51 GMT 51.775269 0.071040 2,200 43 164 -128
2019-11-08 10:20:47 GMT 51.772839 0.067291 2,200 43 165 -128
2019-11-08 10:20:44 GMT 51.771698 0.065547 2,200 44 167 -128
2019-11-08 10:20:41 GMT 51.770138 0.063095 2,200 45 171 192
2019-11-08 10:20:38 GMT 51.768139 0.059891 2,200 45 172 256
2019-11-08 10:20:35 GMT 51.766273 0.056763 2,200 47 176 -320
2019-11-08 10:20:31 GMT 51.763760 0.052414 2,200 47 175 0
2019-11-08 10:20:28 GMT 51.762589 0.050329 2,200 47 176 -64
2019-11-08 10:20:24 GMT 51.760410 0.046463 2,200 47 176 -320
2019-11-08 10:20:21 GMT 51.758640 0.043335 2,250 45 176 -768
2019-11-08 10:20:18 GMT 51.756966 0.040588 2,275 45 176 -768
2019-11-08 10:20:15 GMT 51.755173 0.037710 2,575 59 179 -1152
2019-11-08 10:20:10 GMT 51.752125 0.032654 2,400 47 177 -960
2019-11-08 10:20:07 GMT 51.750961 0.030584 2,425 50 178 -960
2019-11-08 10:20:02 GMT 51.748535 0.025610 2,500 59 179 -1152
2019-11-08 10:19:59 GMT 51.746246 0.015663 3,100 81 185 -1344
2019-11-08 10:19:56 GMT 51.746246 0.015663 2,975 105 195 -960
2019-11-08 10:19:51 GMT 51.745972 0.010838 2,725 88 187 -1088
2019-11-08 10:19:48 GMT 51.746025 0.004501 2,850 96 191 -896
2019-11-08 10:19:45 GMT 51.746155 0.002227 2,975 105 195 -960
2019-11-08 10:19:42 GMT 51.746632 -0.001831 2,925 109 195 -896
2019-11-08 10:19:39 GMT 51.747894 -0.008091 2,950 118 200 -640
2019-11-08 10:19:36 GMT 51.750275 -0.014921 3,000 120 201 -512
2019-11-08 10:19:33 GMT 51.750275 -0.014921 3,000 126 205 -384
2019-11-08 10:19:29 GMT 51.752472 -0.019226 3,025 133 208 -448
2019-11-08 10:19:26 GMT 51.754440 -0.022195 3,050 140 212 -512
2019-11-08 10:19:22 GMT 51.761387 -0.029068 3,225 171 224 -256
2019-11-08 10:19:18 GMT 51.761387 -0.029068 3,150 165 222 -512
2019-11-08 10:19:15 GMT 51.764282 -0.030806 3,225 164 221 -640
2019-11-08 10:19:12 GMT 51.767258 -0.031994 3,200 168 224 -256
2019-11-08 10:19:07 GMT 51.771927 -0.032959 3,225 184 226 -64
2019-11-08 10:19:04 GMT 51.775024 -0.032883 3,225 184 226 -64
2019-11-08 10:19:01 GMT 51.782333 -0.030518 3,225 200 224 64
2019-11-08 10:18:58 GMT 51.782333 -0.030518 3,225 205 224 64
2019-11-08 10:18:55 GMT 51.784424 -0.029247 3,225 212 223 0
2019-11-08 10:18:51 GMT 51.787491 -0.026872 3,225 256 213 -64
2019-11-08 10:18:48 GMT 51.790760 -0.023346 3,225 222 221 0
2019-11-08 10:18:45 GMT 51.792938 -0.020340 3,225 235 218 0
2019-11-08 10:18:40 GMT 51.796783 -0.013139 3,225 237 218 0
2019-11-08 10:18:37 GMT 51.797886 -0.010300 3,225 239 217 0
2019-11-08 10:18:34 GMT 51.799347 -0.005716 3,225 254 213 -128
2019-11-08 10:18:31 GMT 51.801468 0.007095 3,225 263 211 0
2019-11-08 10:18:26 GMT 51.801559 0.010376 3,225 299 201 0
2019-11-08 10:18:20 GMT 51.801361 0.016331 3,225 276 207 -64
2019-11-08 10:18:17 GMT 51.800903 0.020488 3,225 292 203 64
2019-11-08 10:18:14 GMT 51.800026 0.025253 3,225 299 203 64
2019-11-08 10:18:09 GMT 51.798164 0.031815 3,225 299 201 64
2019-11-08 10:18:06 GMT 51.796349 0.037155 3,225 300 201 64
2019-11-08 10:18:03 GMT 51.795418 0.039749 3,225 300 201 -64
2019-11-08 10:18:00 GMT 51.793926 0.044174 3,225 299 202 0
2019-11-08 10:17:56 GMT 51.791832 0.050125 3,225 300 201 0
2019-11-08 10:17:53 GMT 51.791180 0.052032 3,225 300 201 0
2019-11-08 10:17:50 GMT 51.789047 0.058198 3,225 300 201 0
2019-11-08 10:17:47 GMT 51.786991 0.064087 3,225 299 200 64
2019-11-08 10:17:41 GMT 51.785500 0.068436 3,225 299 200 64
2019-11-08 10:17:38 GMT 51.784149 0.072403 3,225 299 200 -64
2019-11-08 10:17:35 GMT 51.782776 0.076385 3,225 299 200 0
2019-11-08 10:17:32 GMT 51.781403 0.080338 3,225 299 200 0
2019-11-08 10:17:29 GMT 51.780167 0.084031 3,225 299 201 0
2019-11-08 10:17:25 GMT 51.778152 0.089969 3,225 300 201 64
2019-11-08 10:17:22 GMT 51.777191 0.092864 3,225 299 201 64
2019-11-08 10:17:19 GMT 51.775864 0.096893 3,225 300 201 64
2019-11-08 10:17:15 GMT 51.773304 0.104065 3,225 312 197 -64
2019-11-08 10:17:12 GMT 51.772141 0.106964 3,225 307 198 -128
2019-11-08 10:17:09 GMT 51.770836 0.109787 3,225 320 195 64
2019-11-08 10:17:06 GMT 51.768906 0.113204 3,225 317 195 64
2019-11-08 10:17:03 GMT 51.766342 0.116618 3,225 327 194 0
2019-11-08 10:17:00 GMT 51.764008 0.118920 3,225 337 193 0
2019-11-08 10:16:57 GMT 51.761902 0.120478 3,225 341 192 0
2019-11-08 10:16:54 GMT 51.759247 0.121918 3,225 349 192 0
2019-11-08 10:16:51 GMT 51.756271 0.122780 3,225 358 193 0
2019-11-08 10:16:48 GMT 51.754807 0.122928 3,225 356 192 0
2019-11-08 10:16:45 GMT 51.751007 0.122631 3,225 14 195 0
2019-11-08 10:16:42 GMT 51.746201 0.120627 3,225 23 199 0
2019-11-08 10:16:39 GMT 51.746201 0.120627 3,225 21 198 -64
2019-11-08 10:16:35 GMT 51.740532 0.115662 3,225 40 203 0
2019-11-08 10:16:29 GMT 51.736526 0.109634 3,225 104 217 -64
2019-11-08 10:16:26 GMT 51.736526 0.109634 3,225 58 207 64
2019-11-08 10:16:23 GMT 51.733109 0.101475 3,225 70 210 0
2019-11-08 10:16:20 GMT 51.731918 0.096947 3,225 87 214 0
2019-11-08 10:16:16 GMT 51.731918 0.096947 3,225 83 213 0
2019-11-08 10:16:13 GMT 51.730755 0.089951 3,225 96 216 0
2019-11-08 10:16:10 GMT 51.730453 0.086183 3,225 91 215 0
2019-11-08 10:16:05 GMT 51.730453 0.079577 3,225 96 216 0
2019-11-08 10:16:01 GMT 51.732101 0.067403 3,225 108 218 -64
2019-11-08 10:15:58 GMT 51.732101 0.067403 3,225 117 220 0
2019-11-08 10:15:55 GMT 51.733223 0.063477 3,225 117 220 0
2019-11-08 10:15:52 GMT 51.735260 0.057827 3,225 129 223 64
2019-11-08 10:15:49 GMT 51.736435 0.055084 3,225 129 223 64
2019-11-08 10:15:45 GMT 51.739182 0.050049 3,225 134 223 -64
2019-11-08 10:15:42 GMT 51.742035 0.045281 3,225 134 224 0
2019-11-08 10:15:39 GMT 51.743454 0.042906 3,225 134 224 0
2019-11-08 10:15:36 GMT 51.745701 0.039215 3,225 134 224 0
2019-11-08 10:15:33 GMT 51.750214 0.031891 3,225 135 222 64
2019-11-08 10:15:30 GMT 51.750214 0.031891 3,225 135 222 0
2019-11-08 10:15:27 GMT 51.752106 0.028802 3,225 135 223 0
2019-11-08 10:15:24 GMT 51.754303 0.025313 3,225 135 223 0
2019-11-08 10:15:21 GMT 51.756824 0.021286 3,225 135 222 0
2019-11-08 10:15:18 GMT 51.758408 0.018692 3,225 135 222 0
2019-11-08 10:15:15 GMT 51.762909 0.011580 3,225 135 222 0
2019-11-08 10:15:12 GMT 51.762909 0.011580 3,225 135 222 64
2019-11-08 10:15:09 GMT 51.765015 0.008240 3,225 135 222 64
2019-11-08 10:15:06 GMT 51.767719 0.003967 3,225 135 222 -64
2019-11-08 10:15:03 GMT 51.773163 -0.004654 3,225 135 222 0
2019-11-08 10:14:59 GMT 51.773163 -0.004654 3,225 135 224 0
2019-11-08 10:14:56 GMT 51.775864 -0.008908 3,225 135 222 0
2019-11-08 10:14:52 GMT 51.777679 -0.011749 3,225 135 223 0
2019-11-08 10:14:49 GMT 51.780567 -0.016403 3,225 135 223 0
2019-11-08 10:14:46 GMT 51.782593 -0.019597 3,225 135 223 64
2019-11-08 10:14:43 GMT 51.784801 -0.023117 3,225 135 222 0
2019-11-08 10:14:40 GMT 51.786713 -0.026093 3,225 135 223 64
2019-11-08 10:14:36 GMT 51.790436 -0.031967 3,225 136 222 64
2019-11-08 10:14:33 GMT 51.792252 -0.034741 3,225 137 222 -64
2019-11-08 10:14:29 GMT 51.794903 -0.038452 3,225 141 222 -128
2019-11-08 10:14:26 GMT 51.797791 -0.041941 3,225 152 223 0
2019-11-08 10:14:23 GMT 51.799576 -0.043648 3,225 183 227 -64
2019-11-08 10:14:20 GMT 51.803703 -0.046692 3,225 160 224 0
2019-11-08 10:14:17 GMT 51.805344 -0.047583 3,225 164 225 0
2019-11-08 10:14:14 GMT 51.809143 -0.048993 3,225 204 226 0
2019-11-08 10:14:11 GMT 51.812130 -0.049515 3,225 177 227 -64
2019-11-08 10:14:08 GMT 51.815323 -0.049587 3,225 194 228 64
2019-11-08 10:14:05 GMT 51.818089 -0.049210 3,225 192 228 64
2019-11-08 10:14:02 GMT 51.821686 -0.048028 3,225 194 228 64
2019-11-08 10:13:58 GMT 51.825348 -0.046024 3,225 206 225 0
2019-11-08 10:13:55 GMT 51.828049 -0.043945 3,225 212 225 0
2019-11-08 10:13:52 GMT 51.831940 -0.039863 3,225 219 224 -64
2019-11-08 10:13:48 GMT 51.834366 -0.036596 3,225 226 223 -64
2019-11-08 10:13:45 GMT 51.836895 -0.032120 3,225 230 222 0
2019-11-08 10:13:42 GMT 51.837872 -0.030060 3,225 238 220 0
2019-11-08 10:13:39 GMT 51.839996 -0.024571 3,225 249 218 0
2019-11-08 10:13:36 GMT 51.841049 -0.020933 3,225 251 217 0
2019-11-08 10:13:33 GMT 51.842667 -0.012360 3,225 260 214 0
2019-11-08 10:13:30 GMT 51.842667 -0.012360 3,225 262 213 0
2019-11-08 10:13:27 GMT 51.843063 -0.006755 3,225 300 201 0
2019-11-08 10:13:24 GMT 51.842575 0.003891 3,225 281 206 0
2019-11-08 10:13:20 GMT 51.842575 0.003891 3,225 284 206 0
2019-11-08 10:13:17 GMT 51.841690 0.008850 3,225 291 203 64
2019-11-08 10:13:14 GMT 51.840664 0.012970 3,225 295 203 64
2019-11-08 10:13:11 GMT 51.839596 0.016479 3,225 299 202 0
2019-11-08 10:13:07 GMT 51.837662 0.022195 3,225 299 202 0
2019-11-08 10:13:04 GMT 51.836517 0.025536 3,225 299 202 0
2019-11-08 10:13:01 GMT 51.834457 0.031549 3,225 300 201 0
2019-11-08 10:12:57 GMT 51.832764 0.036448 3,225 299 201 0
2019-11-08 10:12:54 GMT 51.831867 0.039063 3,225 299 202 0
2019-11-08 10:12:51 GMT 51.830471 0.043106 3,225 299 202 0
2019-11-08 10:12:48 GMT 51.829147 0.046915 3,225 299 201 0
2019-11-08 10:12:45 GMT 51.826000 0.056152 3,225 299 201 0
2019-11-08 10:12:42 GMT 51.826000 0.056152 3,225 299 201 0
2019-11-08 10:12:39 GMT 51.825165 0.058670 3,225 299 201 0
2019-11-08 10:12:36 GMT 51.823700 0.063097 3,225 299 202 0
2019-11-08 10:12:33 GMT 51.822327 0.067180 3,225 299 202 0
2019-11-08 10:12:30 GMT 51.821205 0.070419 3,225 299 200 0
2019-11-08 10:12:27 GMT 51.819065 0.076752 3,225 299 201 0
2019-11-08 10:12:24 GMT 51.818554 0.078278 3,225 299 202 0
2019-11-08 10:12:21 GMT 51.816925 0.083066 3,225 300 200 64
2019-11-08 10:12:18 GMT 51.815620 0.086899 3,225 299 201 64
2019-11-08 10:12:15 GMT 51.813805 0.092316 3,225 299 202 64
2019-11-08 10:12:12 GMT 51.812943 0.094943 3,225 299 202 0
2019-11-08 10:12:09 GMT 51.811844 0.098209 3,225 300 200 64
2019-11-08 10:12:05 GMT 51.809986 0.103836 3,225 299 202 0
2019-11-08 10:12:02 GMT 51.807381 0.111542 3,225 299 202 0
2019-11-08 10:11:56 GMT 51.805847 0.116173 3,225 299 201 0
2019-11-08 10:11:52 GMT 51.804062 0.121369 3,225 299 201 0
2019-11-08 10:11:49 GMT 51.802864 0.124893 3,225 299 201 0
2019-11-08 10:11:42 GMT 51.799652 0.134277 3,225 300 201 0
2019-11-08 10:11:39 GMT 51.798164 0.138550 3,225 300 201 0
2019-11-08 10:11:35 GMT 51.796051 0.144678 3,225 300 201 -64
2019-11-08 10:11:31 GMT 51.792671 0.154419 3,225 300 201 0
2019-11-08 10:11:28 GMT 51.792671 0.154419 3,225 300 200 64
2019-11-08 10:11:23 GMT 51.790283 0.161158 3,225 300 200 64
2019-11-08 10:11:20 GMT 51.789642 0.163088 3,225 300 200 0
2019-11-08 10:11:17 GMT 51.788200 0.167160 3,225 300 200 0
2019-11-08 10:11:14 GMT 51.786850 0.171105 3,225 300 200 -64
2019-11-08 10:11:10 GMT 51.782986 0.181808 3,225 309 199 0
2019-11-08 10:11:06 GMT 51.782986 0.181808 3,225 309 199 0
2019-11-08 10:11:03 GMT 51.781265 0.185951 3,225 309 199 0
2019-11-08 10:11:00 GMT 51.780121 0.188252 3,225 317 198 -64
2019-11-08 10:10:57 GMT 51.778286 0.191422 3,225 335 197 0
2019-11-08 10:10:54 GMT 51.775585 0.194855 3,225 328 198 0
2019-11-08 10:10:48 GMT 51.771114 0.198746 3,225 343 197 0
2019-11-08 10:10:45 GMT 51.768494 0.200129 3,225 345 198 0
2019-11-08 10:10:41 GMT 51.765244 0.201020 3,225 50 208 0
2019-11-08 10:10:38 GMT 51.761063 0.201111 3,225 7 199 -64
2019-11-08 10:10:35 GMT 51.759247 0.200723 3,225 10 200 -64
2019-11-08 10:10:31 GMT 51.755520 0.199203 3,225 23 203 -64
2019-11-08 10:10:28 GMT 51.752773 0.197449 3,225 31 205 0
2019-11-08 10:10:24 GMT 51.750183 0.195082 3,225 36 206 64
2019-11-08 10:10:19 GMT 51.746384 0.190256 3,225 45 208 0
2019-11-08 10:10:16 GMT 51.743774 0.185357 3,225 54 210 0
2019-11-08 10:10:13 GMT 51.740295 0.174890 3,225 78 215 0
2019-11-08 10:10:08 GMT 51.740295 0.174890 3,225 66 212 -64
2019-11-08 10:10:05 GMT 51.739555 0.170975 3,225 110 220 0
2019-11-08 10:10:01 GMT 51.738762 0.157242 3,225 89 217 0
2019-11-08 10:09:58 GMT 51.738762 0.157242 3,225 104 218 0
2019-11-08 10:09:54 GMT 51.739334 0.150914 3,225 104 218 0
2019-11-08 10:09:49 GMT 51.740391 0.145187 3,225 114 220 0
2019-11-08 10:09:46 GMT 51.742161 0.138931 3,225 130 224 0
2019-11-08 10:09:42 GMT 51.743408 0.135473 3,225 123 222 64
2019-11-08 10:09:37 GMT 51.746887 0.128124 3,225 129 224 64
2019-11-08 10:09:33 GMT 51.749237 0.123596 3,225 130 224 64
2019-11-08 10:09:29 GMT 51.752701 0.116990 3,225 130 224 64
2019-11-08 10:09:26 GMT 51.756500 0.109863 3,225 130 224 64
2019-11-08 10:09:23 GMT 51.756500 0.109863 3,225 130 224 0
2019-11-08 10:09:18 GMT 51.759247 0.104741 3,225 130 224 0
2019-11-08 10:09:15 GMT 51.761948 0.099768 3,225 131 225 0
2019-11-08 10:09:11 GMT 51.764099 0.095759 3,225 130 224 0
2019-11-08 10:09:08 GMT 51.766415 0.091400 3,225 130 224 0
2019-11-08 10:09:05 GMT 51.768372 0.087814 3,225 130 224 0
2019-11-08 10:09:02 GMT 51.770004 0.084699 3,225 131 223 0
2019-11-08 10:08:59 GMT 51.772980 0.079193 3,225 131 223 64
2019-11-08 10:08:56 GMT 51.777168 0.071411 3,225 131 223 0
2019-11-08 10:08:52 GMT 51.777168 0.071411 3,225 131 223 0
2019-11-08 10:08:49 GMT 51.779495 0.067062 3,225 131 223 0
2019-11-08 10:08:46 GMT 51.781219 0.063934 3,225 131 223 0
2019-11-08 10:08:43 GMT 51.783264 0.060120 3,225 130 223 0
2019-11-08 10:08:38 GMT 51.786713 0.053711 3,225 130 223 0
2019-11-08 10:08:32 GMT 51.790375 0.046915 3,225 130 223 0
2019-11-08 10:08:29 GMT 51.793507 0.041046 3,225 130 223 0
2019-11-08 10:08:26 GMT 51.794533 0.039062 3,225 130 223 0
2019-11-08 10:08:23 GMT 51.797195 0.034147 3,225 130 222 192
2019-11-08 10:08:19 GMT 51.800034 0.028876 3,225 130 221 64
2019-11-08 10:08:15 GMT 51.804474 0.020488 3,225 129 221 128
2019-11-08 10:08:08 GMT 51.806774 0.015945 3,225 126 220 -128
2019-11-08 10:08:05 GMT 51.808311 0.012665 3,225 123 219 -64
2019-11-08 10:08:02 GMT 51.811844 0.001633 3,225 115 217 -64
2019-11-08 10:07:59 GMT 51.811844 0.001633 3,225 79 207 64
2019-11-08 10:07:56 GMT 51.812408 -0.001450 3,225 99 213 0
2019-11-08 10:07:53 GMT 51.813080 -0.007646 3,225 91 211 64
2019-11-08 10:07:50 GMT 51.813126 -0.012174 3,225 77 206 64
2019-11-08 10:07:46 GMT 51.812943 -0.016108 3,225 65 203 0
2019-11-08 10:07:43 GMT 51.812176 -0.021362 3,225 67 204 0
2019-11-08 10:07:35 GMT 51.808777 -0.032439 3,225 53 201 0
2019-11-08 10:07:32 GMT 51.807037 -0.035780 3,225 36 199 0
2019-11-08 10:07:27 GMT 51.804108 -0.039937 3,225 31 199 0
2019-11-08 10:07:24 GMT 51.801609 -0.042419 3,225 26 198 0
2019-11-08 10:07:21 GMT 51.799187 -0.044174 3,225 18 197 0
2019-11-08 10:07:17 GMT 51.794312 -0.046098 3,225 6 197 64
2019-11-08 10:07:14 GMT 51.791748 -0.046321 3,225 359 197 0
2019-11-08 10:07:11 GMT 51.789925 -0.046234 3,225 356 196 0
2019-11-08 10:07:06 GMT 51.785595 -0.044785 3,225 339 197 0
2019-11-08 10:07:03 GMT 51.782455 -0.042758 3,225 336 196 0
2019-11-08 10:07:00 GMT 51.780716 -0.041124 3,225 331 197 0
2019-11-08 10:06:56 GMT 51.777725 -0.037308 3,225 314 200 0
2019-11-08 10:06:53 GMT 51.775085 -0.032588 3,225 306 202 64
2019-11-08 10:06:50 GMT 51.772293 -0.025684 3,225 300 203 -64
2019-11-08 10:06:47 GMT 51.772293 -0.025684 3,225 300 202 0
2019-11-08 10:06:43 GMT 51.770744 -0.021286 3,225 300 203 0
2019-11-08 10:06:40 GMT 51.769348 -0.017319 3,225 300 202 0
2019-11-08 10:06:36 GMT 51.767437 -0.011902 3,225 300 201 0
2019-11-08 10:06:32 GMT 51.765575 -0.006561 3,225 300 201 0
2019-11-08 10:06:29 GMT 51.764236 -0.002672 3,225 300 201 0
2019-11-08 10:06:26 GMT 51.762772 0.001485 3,225 300 201 0
2019-11-08 10:06:23 GMT 51.760365 0.008316 3,225 300 201 0
2019-11-08 10:06:17 GMT 51.758331 0.014178 3,225 300 201 0
2019-11-08 10:06:14 GMT 51.757198 0.017319 3,225 300 201 0
2019-11-08 10:06:11 GMT 51.755356 0.022567 3,225 300 201 0
2019-11-08 10:06:05 GMT 51.753296 0.028431 3,225 300 201 -64
2019-11-08 10:06:01 GMT 51.751465 0.033553 3,225 301 201 0
2019-11-08 10:05:58 GMT 51.749844 0.038071 3,225 300 202 0
2019-11-08 10:05:53 GMT 51.747562 0.044556 3,225 301 201 0
2019-11-08 10:05:50 GMT 51.746212 0.048218 3,225 301 201 0
2019-11-08 10:05:47 GMT 51.744781 0.052259 3,225 301 201 0
2019-11-08 10:05:44 GMT 51.743370 0.056076 3,225 301 201 0
2019-11-08 10:05:41 GMT 51.742020 0.059891 3,225 301 200 0
2019-11-08 10:05:38 GMT 51.740204 0.064850 3,225 301 200 -64
2019-11-08 10:05:35 GMT 51.738853 0.068588 3,225 301 200 0
2019-11-08 10:05:31 GMT 51.737133 0.073242 3,225 301 199 0
2019-11-08 10:05:26 GMT 51.734943 0.079193 3,225 301 199 0
2019-11-08 10:05:23 GMT 51.733597 0.082779 3,225 301 198 64
2019-11-08 10:05:20 GMT 51.732430 0.086060 3,225 301 199 64
2019-11-08 10:05:17 GMT 51.730709 0.090637 3,225 301 196 64
2019-11-08 10:05:14 GMT 51.729584 0.093606 3,225 302 196 64
2019-11-08 10:05:11 GMT 51.727524 0.099174 3,225 301 194 0
2019-11-08 10:05:07 GMT 51.725262 0.105286 3,225 301 191 -192
2019-11-08 10:05:04 GMT 51.724377 0.107727 3,225 301 187 -64
2019-11-08 10:05:00 GMT 51.722992 0.111496 3,225 302 184 192
2019-11-08 10:04:57 GMT 51.721725 0.114899 3,225 303 184 128
2019-11-08 10:04:53 GMT 51.719677 0.120010 3,225 305 183 -64
2019-11-08 10:04:50 GMT 51.716465 0.125961 3,225 314 181 0
2019-11-08 10:04:47 GMT 51.716465 0.125961 3,225 324 181 0
2019-11-08 10:04:42 GMT 51.712742 0.130234 3,225 331 180 0
2019-11-08 10:04:39 GMT 51.710083 0.132133 3,225 344 181 0
2019-11-08 10:04:32 GMT 51.705059 0.133820 3,225 4 182 0
2019-11-08 10:04:29 GMT 51.702778 0.133820 3,225 11 182 0
2019-11-08 10:04:26 GMT 51.700287 0.133321 3,225 34 185 0
2019-11-08 10:04:23 GMT 51.697906 0.132281 3,225 19 183 0
2019-11-08 10:04:19 GMT 51.694725 0.130081 3,225 37 186 0
2019-11-08 10:04:15 GMT 51.692162 0.127411 3,225 37 186 0
2019-11-08 10:04:12 GMT 51.690254 0.124664 3,225 45 186 0
2019-11-08 10:04:08 GMT 51.686623 0.116653 3,225 59 188 0
2019-11-08 10:04:05 GMT 51.686623 0.116653 3,225 64 189 0
2019-11-08 10:04:01 GMT 51.685272 0.111313 3,225 105 196 0
2019-11-08 10:03:58 GMT 51.684631 0.107042 3,225 89 193 0
2019-11-08 10:03:55 GMT 51.684311 0.101920 3,225 93 194 0
2019-11-08 10:03:51 GMT 51.684574 0.096283 3,225 103 196 0
2019-11-08 10:03:48 GMT 51.685226 0.091476 3,225 129 200 0
2019-11-08 10:03:45 GMT 51.685970 0.088120 3,225 129 199 0
2019-11-08 10:03:42 GMT 51.687138 0.084076 3,225 118 197 64
2019-11-08 10:03:38 GMT 51.689137 0.079193 3,225 129 199 -64
2019-11-08 10:03:35 GMT 51.690907 0.075531 3,225 129 198 -64
2019-11-08 10:03:31 GMT 51.693375 0.070817 3,225 129 198 0
2019-11-08 10:03:27 GMT 51.695423 0.066833 3,225 129 198 0
2019-11-08 10:03:24 GMT 51.697006 0.063782 3,225 129 199 0
2019-11-08 10:03:21 GMT 51.700451 0.057068 3,225 129 199 0
2019-11-08 10:03:15 GMT 51.702759 0.052556 3,225 129 199 64
2019-11-08 10:03:12 GMT 51.705093 0.047954 3,225 129 199 0
2019-11-08 10:03:08 GMT 51.708618 0.041050 3,225 129 199 0
2019-11-08 10:03:05 GMT 51.708618 0.041050 3,225 129 199 0
2019-11-08 10:03:02 GMT 51.710133 0.038147 3,225 129 200 0
2019-11-08 10:02:59 GMT 51.712322 0.033875 3,225 129 201 0
2019-11-08 10:02:56 GMT 51.713856 0.030823 3,225 129 201 0
2019-11-08 10:02:53 GMT 51.717041 0.024645 3,225 129 201 0
2019-11-08 10:02:47 GMT 51.718792 0.021286 3,225 129 200 0
2019-11-08 10:02:44 GMT 51.720749 0.017519 3,225 129 200 0
2019-11-08 10:02:41 GMT 51.722534 0.014030 3,225 129 200 0
2019-11-08 10:02:38 GMT 51.725143 0.008982 3,225 129 201 0
2019-11-08 10:02:35 GMT 51.726334 0.006714 3,225 129 200 0
2019-11-08 10:02:31 GMT 51.728668 0.002227 3,225 129 200 0
2019-11-08 10:02:28 GMT 51.730709 -0.001755 3,225 129 201 64
2019-11-08 10:02:25 GMT 51.731873 -0.004009 3,225 129 201 0
2019-11-08 10:02:21 GMT 51.734341 -0.008774 3,225 129 201 0
2019-11-08 10:02:18 GMT 51.736313 -0.012619 3,225 129 201 0
2019-11-08 10:02:15 GMT 51.738110 -0.016098 3,225 131 201 64
2019-11-08 10:02:12 GMT 51.739693 -0.019150 3,225 131 201 64
2019-11-08 10:02:09 GMT 51.742252 -0.023804 3,225 132 201 -64
2019-11-08 10:02:06 GMT 51.744186 -0.026724 3,225 140 201 0
2019-11-08 10:02:03 GMT 51.746017 -0.029173 3,225 155 202 0
2019-11-08 10:02:00 GMT 51.748444 -0.031623 3,225 153 203 0
2019-11-08 10:01:57 GMT 51.752197 -0.034221 3,225 162 203 0
2019-11-08 10:01:54 GMT 51.753525 -0.034889 3,225 167 203 0
2019-11-08 10:01:50 GMT 51.756451 -0.035858 3,225 171 203 0
2019-11-08 10:01:47 GMT 51.760025 -0.036225 3,225 197 202 0
2019-11-08 10:01:44 GMT 51.762505 -0.035934 3,225 215 201 -64
2019-11-08 10:01:41 GMT 51.765701 -0.034963 3,225 195 202 -64
2019-11-08 10:01:37 GMT 51.769043 -0.033107 3,225 209 203 64
2019-11-08 10:01:34 GMT 51.771488 -0.031204 3,225 211 203 0
2019-11-08 10:01:29 GMT 51.775494 -0.027084 3,225 215 202 0
2019-11-08 10:01:26 GMT 51.777557 -0.024793 3,225 215 201 64
2019-11-08 10:01:23 GMT 51.782803 -0.018921 3,225 215 201 -64
2019-11-08 10:01:19 GMT 51.782803 -0.018921 3,225 215 201 0
2019-11-08 10:01:16 GMT 51.785385 -0.015960 3,225 215 201 0
2019-11-08 10:01:13 GMT 51.787308 -0.013881 3,225 215 201 0
2019-11-08 10:01:10 GMT 51.789688 -0.011209 3,225 215 201 0
2019-11-08 10:01:07 GMT 51.792480 -0.008091 3,225 215 201 64
2019-11-08 10:01:04 GMT 51.795555 -0.004730 3,225 215 201 0
2019-11-08 10:01:01 GMT 51.797604 -0.002441 3,225 215 201 0
2019-11-08 10:00:57 GMT 51.802551 0.003044 3,225 215 202 0
2019-11-08 10:00:54 GMT 51.805344 0.006087 3,225 215 202 64
2019-11-08 10:00:51 GMT 51.805344 0.006087 3,225 215 202 64
2019-11-08 10:00:48 GMT 51.807175 0.008166 3,225 215 204 -128
2019-11-08 10:00:45 GMT 51.809235 0.010467 3,225 215 204 -128
2019-11-08 10:00:42 GMT 51.811569 0.013046 3,225 215 204 0
2019-11-08 10:00:39 GMT 51.815060 0.017014 3,225 215 204 0
2019-11-08 10:00:35 GMT 51.816738 0.018845 3,225 215 204 -64
2019-11-08 10:00:31 GMT 51.822052 0.024868 3,225 215 204 0
2019-11-08 10:00:28 GMT 51.824978 0.028152 3,225 214 204 0
2019-11-08 10:00:25 GMT 51.824978 0.028152 3,225 215 205 -64
2019-11-08 10:00:22 GMT 51.828186 0.031697 3,225 215 205 -64
2019-11-08 10:00:18 GMT 51.830521 0.034295 3,225 215 204 -64
2019-11-08 10:00:15 GMT 51.833218 0.037308 3,225 215 204 64
2019-11-08 10:00:12 GMT 51.835144 0.039417 3,225 215 204 0
2019-11-08 10:00:09 GMT 51.839687 0.044556 3,225 207 204 -128
2019-11-08 10:00:06 GMT 51.839687 0.044556 3,225 212 204 0
2019-11-08 10:00:03 GMT 51.842056 0.047137 3,225 215 204 0
2019-11-08 10:00:00 GMT 51.844250 0.049591 3,225 214 204 0
2019-11-08 09:59:57 GMT 51.846680 0.052111 3,225 213 205 0
2019-11-08 09:59:54 GMT 51.849232 0.054703 3,225 210 204 -64
2019-11-08 09:59:51 GMT 51.851532 0.056713 3,225 207 204 -128
2019-11-08 09:59:48 GMT 51.855240 0.059089 3,225 187 208 0
2019-11-08 09:59:42 GMT 51.860031 0.060883 3,225 188 207 0
2019-11-08 09:59:38 GMT 51.863384 0.061569 3,225 188 210 64
2019-11-08 09:59:35 GMT 51.866226 0.062058 3,225 187 209 -64
2019-11-08 09:59:32 GMT 51.870300 0.062874 3,225 188 210 64
2019-11-08 09:59:29 GMT 51.872272 0.063248 3,225 187 210 0
2019-11-08 09:59:26 GMT 51.875061 0.063839 3,225 187 210 0
2019-11-08 09:59:23 GMT 51.878265 0.064433 3,225 188 210 64
2019-11-08 09:59:19 GMT 51.882156 0.065250 3,225 188 210 0
2019-11-08 09:59:16 GMT 51.885029 0.065842 3,225 188 210 0
2019-11-08 09:59:12 GMT 51.888474 0.066512 3,225 188 210 0
2019-11-08 09:59:08 GMT 51.892456 0.067328 3,225 188 210 64
2019-11-08 09:59:05 GMT 51.895340 0.067902 3,225 188 210 64
2019-11-08 09:59:02 GMT 51.898590 0.068588 3,225 188 210 0
2019-11-08 09:58:59 GMT 51.901836 0.069292 3,225 188 211 -64
2019-11-08 09:58:56 GMT 51.903763 0.069656 3,225 188 211 -64
2019-11-08 09:58:53 GMT 51.906677 0.070312 3,225 188 211 0
2019-11-08 09:58:50 GMT 51.909668 0.070877 3,225 188 212 0
2019-11-08 09:58:47 GMT 51.916546 0.072274 3,225 188 212 0
2019-11-08 09:58:43 GMT 51.916546 0.072274 3,225 188 211 64
2019-11-08 09:58:40 GMT 51.919830 0.072937 3,225 188 211 0
2019-11-08 09:58:35 GMT 51.924454 0.073929 3,225 188 211 -64
2019-11-08 09:58:32 GMT 51.927441 0.074550 3,225 188 211 0
2019-11-08 09:58:29 GMT 51.930496 0.075150 3,225 188 212 0
2019-11-08 09:58:26 GMT 51.932877 0.075684 3,225 188 212 0
2019-11-08 09:58:23 GMT 51.935898 0.076294 3,225 187 213 64
2019-11-08 09:58:20 GMT 51.939468 0.076981 3,225 187 213 64
2019-11-08 09:58:17 GMT 51.942429 0.077611 3,225 187 213 0
2019-11-08 09:58:13 GMT 51.945686 0.078238 3,225 188 212 0
2019-11-08 09:58:09 GMT 51.949783 0.079102 3,225 189 212 64
2019-11-08 09:58:06 GMT 51.952240 0.079727 3,225 194 211 -64
2019-11-08 09:58:03 GMT 51.955463 0.080828 3,225 194 211 -64
2019-11-08 09:58:00 GMT 51.959610 0.083084 3,225 204 209 0
2019-11-08 09:57:57 GMT 51.961075 0.084229 3,225 208 209 0
2019-11-08 09:57:54 GMT 51.963284 0.086243 3,225 215 208 0
2019-11-08 09:57:50 GMT 51.966431 0.090179 3,225 224 207 0
2019-11-08 09:57:47 GMT 51.968765 0.094070 3,225 242 201 0
2019-11-08 09:57:44 GMT 51.970219 0.097229 3,225 237 203 0
2019-11-08 09:57:41 GMT 51.971649 0.101166 3,225 288 184 64
2019-11-08 09:57:38 GMT 51.972828 0.105704 3,225 251 197 0
2019-11-08 09:57:35 GMT 51.973618 0.110092 3,225 261 194 64
2019-11-08 09:57:32 GMT 51.973984 0.114059 3,225 270 191 0
2019-11-08 09:57:29 GMT 51.974037 0.119437 3,225 275 188 0
2019-11-08 09:57:25 GMT 51.973068 0.127411 3,225 293 182 0
2019-11-08 09:57:19 GMT 51.972080 0.131522 3,225 303 178 0
2019-11-08 09:57:16 GMT 51.970779 0.135040 3,225 308 177 0
2019-11-08 09:57:13 GMT 51.969177 0.138321 3,225 329 172 0
2019-11-08 09:57:09 GMT 51.966915 0.141724 3,225 28 172 64
2019-11-08 09:57:06 GMT 51.964821 0.143921 3,225 332 171 0
2019-11-08 09:57:03 GMT 51.962677 0.145569 3,225 351 170 64
2019-11-08 09:56:59 GMT 51.959328 0.147060 3,225 351 170 64
2019-11-08 09:56:55 GMT 51.956497 0.147400 3,225 28 172 64
2019-11-08 09:56:52 GMT 51.951736 0.146179 3,225 14 170 0
2019-11-08 09:56:49 GMT 51.951736 0.146179 3,225 20 171 0
2019-11-08 09:56:45 GMT 51.948853 0.144235 3,225 31 172 0
2019-11-08 09:56:42 GMT 51.945007 0.139694 3,225 62 181 128
2019-11-08 09:56:39 GMT 51.945007 0.139694 3,225 47 177 0
2019-11-08 09:56:36 GMT 51.943405 0.136871 3,225 54 179 0
2019-11-08 09:56:33 GMT 51.941963 0.133562 3,225 77 186 64
2019-11-08 09:56:30 GMT 51.940704 0.129547 3,225 70 184 128
2019-11-08 09:56:27 GMT 51.940006 0.126186 3,200 78 186 0
2019-11-08 09:56:24 GMT 51.939404 0.122262 3,200 79 187 0
2019-11-08 09:56:21 GMT 51.938984 0.118731 3,200 80 188 64
2019-11-08 09:56:16 GMT 51.937866 0.109471 3,200 77 188 -128
2019-11-08 09:56:13 GMT 51.937500 0.107422 3,200 73 187 -64
2019-11-08 09:56:09 GMT 51.936005 0.101780 3,225 358 208 0
2019-11-08 09:56:06 GMT 51.934795 0.098720 3,225 57 184 -64
2019-11-08 09:56:03 GMT 51.933117 0.095503 3,225 43 183 64
2019-11-08 09:55:58 GMT 51.929398 0.090942 3,225 26 187 -192
2019-11-08 09:55:55 GMT 51.927109 0.089111 3,225 16 189 -192
2019-11-08 09:55:48 GMT 51.921249 0.086823 3,250 3 195 64
2019-11-08 09:55:44 GMT 51.916489 0.086670 3,225 359 202 128
2019-11-08 09:55:38 GMT 51.911819 0.086975 3,225 358 207 0
2019-11-08 09:55:35 GMT 51.908798 0.087204 3,225 358 208 0
2019-11-08 09:55:32 GMT 51.906189 0.087433 3,225 358 208 64
2019-11-08 09:55:27 GMT 51.901882 0.087734 3,225 358 208 0
2019-11-08 09:55:24 GMT 51.899040 0.087969 3,225 358 208 0
2019-11-08 09:55:20 GMT 51.894470 0.088348 3,225 343 214 64
2019-11-08 09:55:17 GMT 51.891129 0.088577 3,225 358 208 0
2019-11-08 09:55:14 GMT 51.888794 0.088707 3,225 358 208 0
2019-11-08 09:55:10 GMT 51.885029 0.088959 3,225 358 209 0
2019-11-08 09:55:07 GMT 51.882065 0.089227 3,225 358 210 0
2019-11-08 09:55:04 GMT 51.876232 0.089569 3,225 358 211 0
2019-11-08 09:54:57 GMT 51.872692 0.089798 3,225 359 213 0
2019-11-08 09:54:54 GMT 51.869659 0.089969 3,225 359 213 0
2019-11-08 09:54:51 GMT 51.866821 0.090118 3,225 358 213 0
2019-11-08 09:54:48 GMT 51.862499 0.090332 3,225 358 213 64
2019-11-08 09:54:44 GMT 51.859406 0.090637 3,225 358 213 64
2019-11-08 09:54:41 GMT 51.855560 0.091095 3,225 351 213 -192
2019-11-08 09:54:36 GMT 51.850800 0.092419 3,225 343 214 64
2019-11-08 09:54:33 GMT 51.846622 0.094757 3,225 334 214 384
2019-11-08 09:54:30 GMT 51.842789 0.098283 3,225 329 214 512
2019-11-08 09:54:26 GMT 51.842789 0.098283 3,100 323 214 1088
2019-11-08 09:54:23 GMT 51.840225 0.101549 3,125 312 215 1024
2019-11-08 09:54:16 GMT 51.835777 0.109940 2,950 288 219 512
2019-11-08 09:54:13 GMT 51.834240 0.114136 2,975 298 217 640
2019-11-08 09:54:10 GMT 51.833122 0.118332 2,775 224 234 384
2019-11-08 09:54:06 GMT 51.831680 0.126266 2,925 284 219 512
2019-11-08 09:54:03 GMT 51.831306 0.129623 2,875 270 222 512
2019-11-08 09:53:59 GMT 51.831070 0.136216 2,850 270 222 512
2019-11-08 09:53:56 GMT 51.831253 0.141783 2,800 237 230 512
2019-11-08 09:53:52 GMT 51.831867 0.146713 2,800 253 226 512
2019-11-08 09:53:49 GMT 51.833122 0.152206 2,775 245 228 448
2019-11-08 09:53:44 GMT 51.835876 0.159599 2,675 225 234 448
2019-11-08 09:53:40 GMT 51.839767 0.166576 2,675 224 234 384
2019-11-08 09:53:36 GMT 51.842102 0.170065 2,675 223 234 320
2019-11-08 09:53:32 GMT 51.844807 0.174103 2,625 223 234 256
2019-11-08 09:53:28 GMT 51.847881 0.178680 2,625 223 233 64
2019-11-08 09:53:25 GMT 51.850254 0.182190 2,625 224 228 1024
2019-11-08 09:53:22 GMT 51.852905 0.186174 2,625 224 232 64
2019-11-08 09:53:18 GMT 51.856384 0.191518 2,600 223 222 2496
2019-11-08 09:53:15 GMT 51.859451 0.196121 2,525 223 226 1984
2019-11-08 09:53:12 GMT 51.860542 0.197754 2,475 223 225 2240
2019-11-08 09:53:08 GMT 51.864265 0.203323 2,300 223 222 2496
2019-11-08 09:53:02 GMT 51.868504 0.209503 2,075 223 218 2240
2019-11-08 09:52:58 GMT 51.871857 0.214462 1,925 223 213 1728
2019-11-08 09:52:55 GMT 51.873734 0.217277 1,875 223 210 1664
2019-11-08 09:52:52 GMT 51.875748 0.220320 1,750 223 205 1728
2019-11-08 09:52:48 GMT 51.878403 0.224255 1,475 223 200 1344
2019-11-08 09:52:44 GMT 51.881351 0.228729 1,575 224 189 1088
2019-11-08 09:52:41 GMT 51.882751 0.230861 1,525 224 188 1088
2019-11-08 09:52:37 GMT 51.885452 0.234944 1,450 224 181 1536
2019-11-08 09:52:34 GMT 51.887077 0.237427 1,350 224 175 1728
2019-11-08 09:52:31 GMT 51.888885 0.240215 1,275 224 172 1472
2019-11-08 09:52:27 GMT 51.891449 0.244075 1,000 224 155 1152
2019-11-08 09:52:23 GMT 51.893463 0.247269 1,125 224 159 1088
2019-11-08 09:52:19 GMT 51.895596 0.250567 1,025 224 152 1088
2019-11-08 09:52:13 GMT 51.898438 0.254804 925 224 145 1856
2019-11-08 09:52:10 GMT 51.900421 0.257874 800 224 145 448
2019-11-08 09:52:04 GMT 51.903511 0.262573 825 224 143 -832
2019-11-08 09:51:59 GMT 51.905411 0.265579 900 224 144 -768
2019-11-08 09:51:51 GMT 51.909531 0.271759 1,000 223 145 -768
2019-11-08 09:51:48 GMT 51.910583 0.273285 1,025 223 146 -768
2019-11-08 09:51:43 GMT 51.913513 0.277710 1,100 223 149 -768
2019-11-08 09:51:39 GMT 51.916809 0.282593 1,150 223 150 -768
2019-11-08 09:51:36 GMT 51.916809 0.282593 1,200 223 150 -832
2019-11-08 09:51:31 GMT 51.919556 0.286713 1,250 223 150 -896
2019-11-08 09:51:28 GMT 51.921112 0.289001 1,300 223 151 -832
2019-11-08 09:51:22 GMT 51.923950 0.293350 1,375 223 158 -832
2019-11-08 09:51:19 GMT 51.926086 0.296709 1,450 224 153 -832
2019-11-08 09:51:13 GMT 51.928600 0.300555 1,550 223 154 -832
2019-11-08 09:51:10 GMT 51.930138 0.302909 1,725 223 155 -832
2019-11-08 09:51:07 GMT 51.931686 0.305099 1,625 223 156 -832
2019-11-08 09:51:03 GMT 51.934048 0.308637 1,650 223 156 -832
2019-11-08 09:51:00 GMT 51.935677 0.310992 2,100 223 159 -896
2019-11-08 09:50:57 GMT 51.937168 0.313189 1,750 223 171 -960
2019-11-08 09:50:53 GMT 51.939423 0.316544 1,800 224 164 -896
2019-11-08 09:50:50 GMT 51.941208 0.319290 1,950 223 170 -960
2019-11-08 09:50:47 GMT 51.942398 0.321121 1,900 223 170 -960
2019-11-08 09:50:44 GMT 51.944504 0.324249 1,925 223 171 -960
2019-11-08 09:50:41 GMT 51.946198 0.326843 1,950 223 171 -960
2019-11-08 09:50:38 GMT 51.951180 0.334298 2,150 223 176 -960
2019-11-08 09:50:33 GMT 51.951180 0.334298 2,100 223 181 -832
2019-11-08 09:50:29 GMT 51.953323 0.337516 2,200 223 188 -960
2019-11-08 09:50:25 GMT 51.956348 0.341989 2,325 224 193 -1088
2019-11-08 09:50:22 GMT 51.957886 0.344343 2,275 223 192 -1088
2019-11-08 09:50:19 GMT 51.960022 0.347443 2,300 223 192 -960
2019-11-08 09:50:16 GMT 51.961422 0.349601 2,450 224 193 -1088
2019-11-08 09:50:13 GMT 51.966030 0.356585 2,450 224 193 -960
2019-11-08 09:50:09 GMT 51.966030 0.356585 2,500 224 193 -1024
2019-11-08 09:50:06 GMT 51.967937 0.359488 2,550 224 194 -1024
2019-11-08 09:50:02 GMT 51.970505 0.363388 2,575 224 193 -960
2019-11-08 09:49:59 GMT 51.972733 0.366786 2,700 224 194 -1088
2019-11-08 09:49:55 GMT 51.975082 0.370407 2,725 223 195 -1088
2019-11-08 09:49:52 GMT 51.977062 0.373300 2,750 223 194 -1152
2019-11-08 09:49:48 GMT 51.980881 0.379028 2,875 223 195 -1088
2019-11-08 09:49:45 GMT 51.981857 0.380441 3,075 223 195 -1088
2019-11-08 09:49:42 GMT 51.983719 0.383266 2,925 224 195 -1024
2019-11-08 09:49:38 GMT 51.986282 0.387190 3,050 223 196 -1024
2019-11-08 09:49:35 GMT 51.988632 0.390701 3,200 225 193 -768
2019-11-08 09:49:32 GMT 51.990692 0.393829 3,175 224 195 -896
2019-11-08 09:49:28 GMT 51.992985 0.397391 3,225 224 191 0
2019-11-08 09:49:25 GMT 51.995316 0.401154 3,200 225 192 -256
2019-11-08 09:49:22 GMT 51.996895 0.403669 3,225 226 191 0
2019-11-08 09:49:19 GMT 51.999115 0.407333 3,225 225 191 64
2019-11-08 09:49:16 GMT 52.000717 0.409851 3,225 224 191 0
2019-11-08 09:49:13 GMT 52.002945 0.413321 3,225 224 191 0
2019-11-08 09:49:09 GMT 52.006157 0.418265 3,225 223 192 64
2019-11-08 09:49:06 GMT 52.007126 0.419693 3,225 221 192 0
2019-11-08 09:49:02 GMT 52.009781 0.423431 3,225 218 193 0
2019-11-08 09:48:59 GMT 52.011932 0.426348 3,225 218 193 0
2019-11-08 09:48:56 GMT 52.014351 0.429252 3,225 215 193 0
2019-11-08 09:48:52 GMT 52.016956 0.431920 3,225 209 192 128
2019-11-08 09:48:49 GMT 52.019657 0.434352 3,225 207 193 64
2019-11-08 09:48:46 GMT 52.021336 0.435765 3,225 206 193 64
2019-11-08 09:48:43 GMT 52.023895 0.437727 3,200 206 193 64
2019-11-08 09:48:39 GMT 52.028091 0.440903 3,200 205 194 64
2019-11-08 09:48:36 GMT 52.030563 0.442657 3,200 200 194 -128
2019-11-08 09:48:32 GMT 52.033855 0.444397 3,225 170 199 -512
2019-11-08 09:48:28 GMT 52.040699 0.444789 3,250 175 198 -512
2019-11-08 09:48:25 GMT 52.040699 0.444789 3,275 170 199 -512
2019-11-08 09:48:22 GMT 52.042191 0.444489 3,275 168 199 -512
2019-11-08 09:48:18 GMT 52.046677 0.442276 3,325 156 201 -512
2019-11-08 09:48:14 GMT 52.050011 0.439453 3,350 144 202 -576
2019-11-08 09:48:10 GMT 52.053085 0.435715 3,550 137 204 -512
2019-11-08 09:48:07 GMT 52.054386 0.433725 3,425 130 206 -576
2019-11-08 09:48:04 GMT 52.057041 0.428467 3,450 121 207 -512
2019-11-08 09:48:01 GMT 52.057755 0.426559 3,575 110 211 -576
2019-11-08 09:47:56 GMT 52.059906 0.419006 3,525 108 211 -576
2019-11-08 09:47:52 GMT 52.061275 0.407593 3,575 95 215 -448
2019-11-08 09:47:46 GMT 52.061279 0.402756 3,600 84 227 -448
2019-11-08 09:47:43 GMT 52.061050 0.396652 3,625 84 222 -448
2019-11-08 09:47:40 GMT 52.060913 0.394058 3,625 84 226 -448
2019-11-08 09:47:36 GMT 52.060436 0.385306 3,675 84 234 -576
2019-11-08 09:47:33 GMT 52.060181 0.380707 3,675 84 234 -512
2019-11-08 09:47:30 GMT 52.059723 0.372772 3,700 84 239 -2496
2019-11-08 09:47:26 GMT 52.059448 0.368118 3,850 84 239 -1600
2019-11-08 09:47:23 GMT 52.059181 0.363569 4,300 84 239 -2496
2019-11-08 09:47:20 GMT 52.058903 0.358782 4,300 84 240 -2496
2019-11-08 09:47:17 GMT 52.058441 0.350800 4,125 84 240 -2496
2019-11-08 09:47:14 GMT 52.058258 0.347900 4,275 84 240 -2496
2019-11-08 09:47:11 GMT 52.057507 0.335318 4,525 84 241 -2496
2019-11-08 09:47:08 GMT 52.057507 0.335318 4,500 84 241 -2496
2019-11-08 09:47:05 GMT 52.057178 0.330610 4,700 84 240 -2816
2019-11-08 09:47:02 GMT 52.056946 0.326765 4,775 84 241 -2560
2019-11-08 09:46:59 GMT 52.056610 0.321579 4,925 84 240 -2816
2019-11-08 09:46:56 GMT 52.055923 0.309501 5,050 84 240 -2688
2019-11-08 09:46:53 GMT 52.055923 0.309501 5,300 84 239 -2304
2019-11-08 09:46:50 GMT 52.055550 0.303223 5,275 84 238 -2304
2019-11-08 09:46:47 GMT 52.055317 0.299848 5,650 84 235 -2240
2019-11-08 09:46:44 GMT 52.054962 0.293427 5,575 84 233 -2176
2019-11-08 09:46:38 GMT 52.054276 0.281830 5,700 84 232 -1728
2019-11-08 09:46:35 GMT 52.053955 0.276566 5,800 84 233 -1536
2019-11-08 09:46:32 GMT 52.053726 0.272293 5,850 84 233 -1280
2019-11-08 09:46:29 GMT 52.053360 0.266876 5,975 84 234 -1216
2019-11-08 09:46:26 GMT 52.052990 0.260690 6,000 84 235 -1344
2019-11-08 09:46:23 GMT 52.052628 0.254211 6,075 85 235 -1216
2019-11-08 09:46:20 GMT 52.052200 0.244917 6,125 86 237 -1024
2019-11-08 09:46:17 GMT 52.052200 0.244917 6,175 87 238 -1024
2019-11-08 09:46:14 GMT 52.052078 0.240631 6,200 88 239 -1024
2019-11-08 09:46:11 GMT 52.051987 0.235138 6,475 89 232 -512
2019-11-08 09:46:08 GMT 52.051941 0.229263 6,475 89 238 -1344
2019-11-08 09:46:05 GMT 52.051895 0.225067 6,450 89 236 -1152
2019-11-08 09:46:02 GMT 52.051781 0.214469 6,475 89 234 -640
2019-11-08 09:45:56 GMT 52.051731 0.208583 6,500 89 233 -384
2019-11-08 09:45:53 GMT 52.051712 0.204315 6,525 89 233 -512
2019-11-08 09:45:50 GMT 52.051666 0.193405 6,575 89 231 -448
2019-11-08 09:45:47 GMT 52.051620 0.186539 6,600 89 231 -448
2019-11-08 09:45:44 GMT 52.051620 0.186539 6,600 89 231 -448
2019-11-08 09:45:40 GMT 52.051594 0.181588 6,675 89 233 -640
2019-11-08 09:45:36 GMT 52.051548 0.174212 6,650 89 231 -448
2019-11-08 09:45:33 GMT 52.051548 0.168797 6,675 89 231 -512
2019-11-08 09:45:30 GMT 52.051498 0.162598 8,000 115 246 -1536
2019-11-08 09:45:26 GMT 52.051498 0.156398 6,750 89 234 -960
2019-11-08 09:45:23 GMT 52.051483 0.152359 6,825 89 235 -1088
2019-11-08 09:45:20 GMT 52.051453 0.146118 6,850 89 235 -1088
2019-11-08 09:45:16 GMT 52.051437 0.139389 6,975 89 236 -960
2019-11-08 09:45:13 GMT 52.051407 0.134190 6,975 89 236 -896
2019-11-08 09:45:10 GMT 52.051407 0.128462 7,025 89 237 -768
2019-11-08 09:45:07 GMT 52.051407 0.121320 7,075 89 239 -576
2019-11-08 09:45:04 GMT 52.051407 0.116612 7,100 90 241 -512
2019-11-08 09:45:01 GMT 52.051392 0.112381 7,175 90 242 -960
2019-11-08 09:44:58 GMT 52.051407 0.106646 7,125 90 243 -704
2019-11-08 09:44:54 GMT 52.051407 0.098485 7,200 90 242 -960
2019-11-08 09:44:51 GMT 52.051437 0.094070 7,925 94 241 -1344
2019-11-08 09:44:48 GMT 52.051437 0.087967 8,000 115 246 -1536
2019-11-08 09:44:45 GMT 52.051453 0.082633 7,350 90 242 -960
2019-11-08 09:44:42 GMT 52.051483 0.076904 7,425 90 242 -1088
2019-11-08 09:44:39 GMT 52.051529 0.071640 7,450 90 241 -1024
2019-11-08 09:44:35 GMT 52.051594 0.064192 7,525 90 242 -1088
2019-11-08 09:44:32 GMT 52.051640 0.060660 7,925 94 241 -1344
2019-11-08 09:44:29 GMT 52.051685 0.054775 8,150 91 241 -1344
2019-11-08 09:44:26 GMT 52.051758 0.048141 7,900 90 242 -1344
2019-11-08 09:44:23 GMT 52.051849 0.038147 7,825 91 242 -1344
2019-11-08 09:44:20 GMT 52.051849 0.038147 7,850 91 242 -1408
2019-11-08 09:44:17 GMT 52.051918 0.032959 7,925 91 241 -1344
2019-11-08 09:44:14 GMT 52.052013 0.026995 8,375 91 241 -1408
2019-11-08 09:44:11 GMT 52.052078 0.021591 8,050 91 241 -1344
2019-11-08 09:44:08 GMT 52.052151 0.017264 8,100 91 241 -1344
2019-11-08 09:44:05 GMT 52.052216 0.011215 8,275 91 241 -1408
2019-11-08 09:44:02 GMT 52.052307 0.003967 8,300 91 241 -1408
2019-11-08 09:43:59 GMT 52.052338 0.000078 8,325 92 241 -1344
2019-11-08 09:43:56 GMT 52.052444 -0.004501 8,375 95 241 -1344
2019-11-08 09:43:53 GMT 52.052719 -0.011139 8,475 101 242 -1472
2019-11-08 09:43:50 GMT 52.053314 -0.017657 8,575 105 243 -1472
2019-11-08 09:43:47 GMT 52.053967 -0.022208 8,600 115 246 -1536
2019-11-08 09:43:43 GMT 52.055271 -0.028251 8,850 144 255 -256
2019-11-08 09:43:40 GMT 52.056793 -0.033417 8,775 124 248 -1472
2019-11-08 09:43:37 GMT 52.058994 -0.039001 8,850 126 249 -1408
2019-11-08 09:43:34 GMT 52.060730 -0.042572 8,950 136 252 -768
2019-11-08 09:43:31 GMT 52.063248 -0.047073 8,950 138 252 -384
2019-11-08 09:43:28 GMT 52.065125 -0.049896 8,975 145 255 -256
2019-11-08 09:43:25 GMT 52.069748 -0.055389 9,000 147 256 -256
2019-11-08 09:43:22 GMT 52.071808 -0.057297 9,025 153 257 -576
2019-11-08 09:43:19 GMT 52.078217 -0.061646 9,075 171 263 -384
2019-11-08 09:43:16 GMT 52.078217 -0.061646 9,125 165 261 -256
2019-11-08 09:43:12 GMT 52.082520 -0.063400 9,100 171 263 -384
2019-11-08 09:43:09 GMT 52.087345 -0.064427 9,125 176 263 -576
2019-11-08 09:43:06 GMT 52.090324 -0.064584 9,200 194 265 -704
2019-11-08 09:43:02 GMT 52.095631 -0.063878 9,250 188 265 -704
2019-11-08 09:42:59 GMT 52.099503 -0.062561 9,225 197 266 -768
2019-11-08 09:42:53 GMT 52.106060 -0.058855 9,300 206 266 -704
2019-11-08 09:42:50 GMT 52.109646 -0.055873 9,350 209 267 -704
2019-11-08 09:42:47 GMT 52.112686 -0.052719 9,375 217 267 -768
2019-11-08 09:42:44 GMT 52.115555 -0.049203 9,500 264 268 -832
2019-11-08 09:42:41 GMT 52.120514 -0.041046 9,500 234 267 -768
2019-11-08 09:42:38 GMT 52.122166 -0.037589 9,525 234 267 -768
2019-11-08 09:42:35 GMT 52.122166 -0.037589 10,325 2 280 -768
2019-11-08 09:42:31 GMT 52.125504 -0.028381 9,600 243 267 -832
2019-11-08 09:42:28 GMT 52.127060 -0.022659 9,650 252 267 -832
2019-11-08 09:42:25 GMT 52.128311 -0.016323 9,675 264 268 -832
2019-11-08 09:42:21 GMT 52.129105 -0.010359 9,675 259 268 -832
2019-11-08 09:42:18 GMT 52.129578 -0.003052 9,775 269 269 -832
2019-11-08 09:42:15 GMT 52.129662 0.001569 9,800 271 269 -832
2019-11-08 09:42:12 GMT 52.129429 0.007455 9,825 276 268 -896
2019-11-08 09:42:09 GMT 52.128937 0.012741 9,875 280 268 -896
2019-11-08 09:42:06 GMT 52.127937 0.019461 9,900 289 268 -896
2019-11-08 09:42:03 GMT 52.126831 0.024490 9,950 291 268 -896
2019-11-08 09:42:00 GMT 52.125099 0.030762 10,475 312 269 -832
2019-11-08 09:41:54 GMT 52.121422 0.040100 10,125 312 269 -832
2019-11-08 09:41:51 GMT 52.118317 0.046005 10,150 330 272 -832
2019-11-08 09:41:48 GMT 52.115089 0.050851 10,225 335 272 -832
2019-11-08 09:41:45 GMT 52.113098 0.053406 10,200 330 272 -832
2019-11-08 09:41:42 GMT 52.108887 0.057678 10,325 335 272 -832
2019-11-08 09:41:39 GMT 52.106140 0.059967 11,050 349 276 -704
2019-11-08 09:41:36 GMT 52.102383 0.062387 10,425 349 276 -704
2019-11-08 09:41:33 GMT 52.099358 0.063878 10,375 346 275 -768
2019-11-08 09:41:30 GMT 52.091309 0.066147 10,450 354 277 -704
2019-11-08 09:41:27 GMT 52.091309 0.066147 10,475 356 278 -704
2019-11-08 09:41:24 GMT 52.087391 0.066624 10,500 357 279 -704
2019-11-08 09:41:21 GMT 52.084259 0.066910 10,575 359 279 -704
2019-11-08 09:41:18 GMT 52.080460 0.067062 10,550 0 280 -704
2019-11-08 09:41:15 GMT 52.071983 0.066781 10,625 2 280 -704
2019-11-08 09:41:12 GMT 52.071983 0.066781 10,650 2 280 -704
2019-11-08 09:41:09 GMT 52.066814 0.066467 10,675 2 280 -704
2019-11-08 09:41:06 GMT 52.063705 0.066223 11,725 2 280 -640
2019-11-08 09:41:03 GMT 52.061142 0.066071 10,825 2 280 -768
2019-11-08 09:41:00 GMT 52.057041 0.065839 11,100 2 280 -704
2019-11-08 09:40:57 GMT 52.052338 0.065526 10,800 2 281 -704
2019-11-08 09:40:54 GMT 52.048149 0.065212 10,875 2 280 -640
2019-11-08 09:40:51 GMT 52.044479 0.065002 10,900 2 280 -640
2019-11-08 09:40:48 GMT 52.040634 0.064697 10,900 2 280 -640
2019-11-08 09:40:45 GMT 52.036510 0.064505 10,950 2 280 -704
2019-11-08 09:40:42 GMT 52.033764 0.064270 10,975 2 279 -704
2019-11-08 09:40:39 GMT 52.028316 0.063956 11,050 2 280 -704
2019-11-08 09:40:35 GMT 52.024200 0.063705 11,100 2 280 -704
2019-11-08 09:40:32 GMT 52.017193 0.063328 11,125 1 281 -704
2019-11-08 09:40:26 GMT 52.012756 0.063095 11,300 11 281 -640
2019-11-08 09:40:22 GMT 52.008133 0.062943 11,200 1 280 -704
2019-11-08 09:40:19 GMT 51.998852 0.062230 11,275 5 280 -704
2019-11-08 09:40:15 GMT 51.998852 0.062230 11,300 7 280 -640
2019-11-08 09:40:12 GMT 51.995361 0.061493 11,525 21 282 -640
2019-11-08 09:40:09 GMT 51.991123 0.060346 11,350 12 281 -640
2019-11-08 09:40:06 GMT 51.987213 0.058855 11,400 15 282 -640
2019-11-08 09:40:03 GMT 51.979980 0.054932 11,425 20 282 -640
2019-11-08 09:40:00 GMT 51.979980 0.054932 11,525 23 283 -704
2019-11-08 09:39:57 GMT 51.976364 0.052567 11,500 23 282 -704
2019-11-08 09:39:54 GMT 51.973061 0.050223 11,650 23 282 -704
2019-11-08 09:39:51 GMT 51.965565 0.044965 11,600 23 282 -704
2019-11-08 09:39:48 GMT 51.965565 0.044965 11,600 23 282 -704
2019-11-08 09:39:45 GMT 51.961842 0.042297 11,700 23 282 -704
2019-11-08 09:39:42 GMT 51.958443 0.039943 11,675 23 282 -704
2019-11-08 09:39:39 GMT 51.954025 0.036774 11,700 23 282 -704
2019-11-08 09:39:36 GMT 51.951458 0.034999 11,800 23 281 -640
2019-11-08 09:39:33 GMT 51.948349 0.032806 11,750 23 281 -640
2019-11-08 09:39:30 GMT 51.939308 0.026367 11,825 23 281 -640
2019-11-08 09:39:27 GMT 51.939308 0.026367 11,850 23 280 -704
2019-11-08 09:39:24 GMT 51.936172 0.024185 11,900 23 280 -704
2019-11-08 09:39:21 GMT 51.933838 0.022507 12,000 23 288 0
2019-11-08 09:39:18 GMT 51.928928 0.019069 11,975 23 279 -640
2019-11-08 09:39:15 GMT 51.922485 0.014496 12,000 23 278 -256
2019-11-08 09:39:09 GMT 51.918182 0.011444 12,000 23 277 0
2019-11-08 09:39:06 GMT 51.915710 0.009766 12,000 23 277 -64
2019-11-08 09:39:03 GMT 51.912357 0.007377 12,000 23 277 0
2019-11-08 09:39:00 GMT 51.908112 0.004349 12,000 23 277 0
2019-11-08 09:38:57 GMT 51.903946 0.001450 12,000 23 277 64
2019-11-08 09:38:54 GMT 51.898224 -0.002594 12,000 23 277 0
2019-11-08 09:38:51 GMT 51.898224 -0.002594 12,000 23 277 0
2019-11-08 09:38:48 GMT 51.893463 -0.005951 12,000 23 277 -64
2019-11-08 09:38:44 GMT 51.889297 -0.008908 12,000 23 277 0
2019-11-08 09:38:41 GMT 51.886288 -0.011063 12,000 23 277 0
2019-11-08 09:38:38 GMT 51.882561 -0.013657 12,000 23 277 0
2019-11-08 09:38:35 GMT 51.878792 -0.016327 12,000 23 275 0
2019-11-08 09:38:32 GMT 51.875381 -0.018781 12,000 23 277 0
2019-11-08 09:38:29 GMT 51.871761 -0.021286 12,000 23 277 0
2019-11-08 09:38:26 GMT 51.867737 -0.024125 12,000 23 275 0
2019-11-08 09:38:23 GMT 51.864807 -0.026204 12,000 23 275 0
2019-11-08 09:38:20 GMT 51.861694 -0.028431 12,000 23 275 0
2019-11-08 09:38:17 GMT 51.858582 -0.030584 12,000 23 275 64
2019-11-08 09:38:14 GMT 51.850254 -0.036469 11,975 23 280 64
2019-11-08 09:38:11 GMT 51.850254 -0.036469 11,975 23 277 128
2019-11-08 09:38:08 GMT 51.847870 -0.038081 11,975 23 281 0
2019-11-08 09:38:05 GMT 51.844250 -0.040665 11,975 23 287 0
2019-11-08 09:38:01 GMT 51.838848 -0.044479 11,975 23 286 -64
2019-11-08 09:37:58 GMT 51.835732 -0.046616 12,000 23 288 0
2019-11-08 09:37:55 GMT 51.832191 -0.049057 12,025 23 288 -128
2019-11-08 09:37:51 GMT 51.826675 -0.052927 12,025 23 287 -640
2019-11-08 09:37:48 GMT 51.822742 -0.055618 12,050 23 286 -704
2019-11-08 09:37:45 GMT 51.819763 -0.057678 12,100 23 284 -320
2019-11-08 09:37:42 GMT 51.816284 -0.060054 12,125 23 284 -384
2019-11-08 09:37:39 GMT 51.812595 -0.062637 12,150 23 284 -512
2019-11-08 09:37:36 GMT 51.809521 -0.064774 12,200 23 284 -896
2019-11-08 09:37:33 GMT 51.804794 -0.067996 12,500 23 286 -1024
2019-11-08 09:37:30 GMT 51.800770 -0.070801 12,200 23 284 -512
2019-11-08 09:37:27 GMT 51.798157 -0.072599 12,225 23 284 -832
2019-11-08 09:37:24 GMT 51.793213 -0.076014 12,325 23 284 -896
2019-11-08 09:37:21 GMT 51.790157 -0.078125 12,300 23 284 -960
2019-11-08 09:37:18 GMT 51.782894 -0.083160 12,375 23 286 -1024
2019-11-08 09:37:15 GMT 51.782894 -0.083160 12,450 23 286 -1024
2019-11-08 09:37:12 GMT 51.780750 -0.084610 12,475 23 286 -960
2019-11-08 09:37:09 GMT 51.776981 -0.087280 12,525 23 287 -896
2019-11-08 09:37:06 GMT 51.771423 -0.091083 12,575 23 287 -960
2019-11-08 09:37:03 GMT 51.767765 -0.093689 12,600 23 287 -896
2019-11-08 09:37:00 GMT 51.764969 -0.095611 12,650 23 287 -896
2019-11-08 09:36:57 GMT 51.761398 -0.098135 12,800 23 287 -896
2019-11-08 09:36:54 GMT 51.758453 -0.100174 12,725 23 288 -960
2019-11-08 09:36:51 GMT 51.754120 -0.103257 12,775 24 289 -896
2019-11-08 09:36:48 GMT 51.744629 -0.110397 12,850 25 288 -896
2019-11-08 09:36:44 GMT 51.744629 -0.110397 12,875 25 289 -960
2019-11-08 09:36:41 GMT 51.740891 -0.113278 12,950 25 290 -960
2019-11-08 09:36:38 GMT 51.734436 -0.118251 13,025 25 291 -896
2019-11-08 09:36:35 GMT 51.734436 -0.118251 13,050 25 290 -896
2019-11-08 09:36:32 GMT 51.726288 -0.124561 13,675 25 295 -896
2019-11-08 09:36:29 GMT 51.726288 -0.124561 13,225 25 292 -384
2019-11-08 09:36:26 GMT 51.724007 -0.126343 13,150 25 292 -512
2019-11-08 09:36:23 GMT 51.719677 -0.129700 13,925 25 293 -320
2019-11-08 09:36:19 GMT 51.715813 -0.132675 13,200 25 293 -384
2019-11-08 09:36:16 GMT 51.711529 -0.136032 13,200 25 294 -576
2019-11-08 09:36:13 GMT 51.708206 -0.138665 13,250 25 294 -832
2019-11-08 09:36:10 GMT 51.703857 -0.142006 13,300 25 294 -960
2019-11-08 09:36:07 GMT 51.700195 -0.144901 13,350 25 294 -960
2019-11-08 09:36:04 GMT 51.697174 -0.147276 13,375 25 294 -960
2019-11-08 09:36:01 GMT 51.692490 -0.150909 13,450 25 295 -960
2019-11-08 09:35:58 GMT 51.685593 -0.156258 13,575 25 295 -960
2019-11-08 09:35:55 GMT 51.685593 -0.156258 13,525 25 295 -896
2019-11-08 09:35:52 GMT 51.682388 -0.158782 13,600 25 296 -896
2019-11-08 09:35:49 GMT 51.677452 -0.162582 13,975 25 296 -896
2019-11-08 09:35:46 GMT 51.673962 -0.165329 13,650 25 296 -1024
2019-11-08 09:35:43 GMT 51.667694 -0.170214 13,750 25 295 -1088
2019-11-08 09:35:40 GMT 51.664047 -0.173035 13,800 25 295 -1216
2019-11-08 09:35:37 GMT 51.664047 -0.173035 14,100 25 293 0
2019-11-08 09:35:34 GMT 51.658833 -0.177002 13,875 25 294 -1216
2019-11-08 09:35:31 GMT 51.657211 -0.178305 14,000 25 294 -1216
2019-11-08 09:35:28 GMT 51.651665 -0.182648 14,050 25 292 -1024
2019-11-08 09:35:25 GMT 51.648312 -0.185242 14,075 25 293 -1216
2019-11-08 09:35:22 GMT 51.645519 -0.187454 14,125 25 292 -1152
2019-11-08 09:35:19 GMT 51.641556 -0.190479 14,200 25 293 -1216
2019-11-08 09:35:16 GMT 51.634624 -0.195847 14,300 25 293 -1152
2019-11-08 09:35:13 GMT 51.631088 -0.198517 14,350 25 293 -1152
2019-11-08 09:35:10 GMT 51.631088 -0.198517 14,400 25 293 -1280
2019-11-08 09:35:07 GMT 51.627224 -0.201492 14,425 25 293 -1216
2019-11-08 09:35:04 GMT 51.623566 -0.204286 14,500 25 292 -1152
2019-11-08 09:35:01 GMT 51.620499 -0.206588 14,525 25 292 -1152
2019-11-08 09:34:58 GMT 51.615677 -0.210266 14,625 25 292 -1216
2019-11-08 09:34:55 GMT 51.611767 -0.213242 14,675 25 291 -1216
2019-11-08 09:34:52 GMT 51.609100 -0.215273 14,800 25 292 -1152
2019-11-08 09:34:49 GMT 51.604111 -0.219058 14,800 25 292 -1216
2019-11-08 09:34:46 GMT 51.601479 -0.221024 15,150 25 291 -1216
2019-11-08 09:34:43 GMT 51.598160 -0.223587 15,675 25 292 -1024
2019-11-08 09:34:40 GMT 51.593987 -0.226746 14,975 25 292 -1152
2019-11-08 09:34:37 GMT 51.589691 -0.230045 15,100 25 292 -1152
2019-11-08 09:34:34 GMT 51.585281 -0.233383 15,050 25 292 -1152
2019-11-08 09:34:31 GMT 51.583054 -0.235093 15,150 25 291 -1216
2019-11-08 09:34:28 GMT 51.578484 -0.238571 15,200 25 290 -1216
2019-11-08 09:34:25 GMT 51.574852 -0.241318 15,275 25 290 -1216
2019-11-08 09:34:21 GMT 51.571266 -0.244064 15,325 25 290 -1216
2019-11-08 09:34:18 GMT 51.566574 -0.247638 15,375 25 289 -1216
2019-11-08 09:34:15 GMT 51.564053 -0.249557 15,400 25 289 -1216
2019-11-08 09:34:12 GMT 51.560234 -0.252457 15,525 25 289 -1216
2019-11-08 09:34:09 GMT 51.556046 -0.255729 15,575 25 289 -1216
2019-11-08 09:34:06 GMT 51.552368 -0.258484 15,700 25 290 -1216
2019-11-08 09:34:03 GMT 51.548767 -0.261296 15,675 25 290 -1216
2019-11-08 09:34:00 GMT 51.545563 -0.263746 15,725 25 290 -1216
2019-11-08 09:33:57 GMT 51.541214 -0.267087 15,800 25 290 -1216
2019-11-08 09:33:54 GMT 51.538376 -0.269239 15,875 25 290 -1216
2019-11-08 09:33:51 GMT 51.533375 -0.273056 15,925 25 290 -1216
2019-11-08 09:33:48 GMT 51.530487 -0.275269 16,875 25 292 -1216
2019-11-08 09:33:45 GMT 51.527206 -0.277776 16,000 25 290 -1216
2019-11-08 09:33:42 GMT 51.523132 -0.280968 16,150 25 290 -1216
2019-11-08 09:33:39 GMT 51.520020 -0.283343 16,150 25 290 -1152
2019-11-08 09:33:36 GMT 51.514938 -0.287247 16,200 25 290 -1152
2019-11-08 09:33:33 GMT 51.513168 -0.288620 16,375 25 291 -1216
2019-11-08 09:33:30 GMT 51.509167 -0.291672 16,325 25 291 -1216
2019-11-08 09:33:27 GMT 51.505600 -0.294478 16,375 25 291 -1216
2019-11-08 09:33:24 GMT 51.501579 -0.297546 17,425 25 292 -1216
2019-11-08 09:33:21 GMT 51.497295 -0.300903 16,525 25 292 -1216
2019-11-08 09:33:18 GMT 51.494129 -0.303345 16,575 25 292 -1216
2019-11-08 09:33:15 GMT 51.490360 -0.306244 16,650 25 292 -1216
2019-11-08 09:33:12 GMT 51.487286 -0.308609 16,675 25 292 -1216
2019-11-08 09:33:09 GMT 51.484177 -0.311032 16,725 25 292 -1216
2019-11-08 09:33:06 GMT 51.479095 -0.314966 16,975 35 294 -1088
2019-11-08 09:33:03 GMT 51.476536 -0.316925 16,925 25 292 -1216
2019-11-08 09:33:00 GMT 51.472389 -0.320129 16,925 25 292 -1216
2019-11-08 09:32:57 GMT 51.469318 -0.322418 16,975 25 293 -1216
2019-11-08 09:32:54 GMT 51.461105 -0.328773 17,075 25 293 -1216
2019-11-08 09:32:51 GMT 51.461105 -0.328773 17,225 36 294 0
2019-11-08 09:32:48 GMT 51.457947 -0.331149 17,225 25 293 -1152
2019-11-08 09:32:45 GMT 51.454514 -0.333747 17,275 25 293 -1024
2019-11-08 09:32:42 GMT 51.450699 -0.336609 17,275 25 292 -1024
2019-11-08 09:32:39 GMT 51.446594 -0.339760 17,400 26 292 -1024
2019-11-08 09:32:36 GMT 51.441925 -0.343545 17,425 28 293 -1024
2019-11-08 09:32:33 GMT 51.439011 -0.346069 17,450 29 292 -1024
2019-11-08 09:32:30 GMT 51.436638 -0.348282 17,475 30 293 -1024
2019-11-08 09:32:27 GMT 51.433193 -0.351563 17,550 32 294 -1088
2019-11-08 09:32:24 GMT 51.428741 -0.356091 17,650 36 294 -1088
2019-11-08 09:32:21 GMT 51.424896 -0.360322 17,675 36 294 -1088
2019-11-08 09:32:18 GMT 51.423019 -0.362549 17,825 36 294 -1088
2019-11-08 09:32:15 GMT 51.419128 -0.367151 17,750 36 294 -1024
2019-11-08 09:32:12 GMT 51.415375 -0.371605 18,000 36 294 0
2019-11-08 09:32:09 GMT 51.412857 -0.374649 17,850 36 294 -1024
2019-11-08 09:32:06 GMT 51.406677 -0.381998 17,950 36 294 -832
2019-11-08 09:32:03 GMT 51.406677 -0.381998 18,000 36 293 -640
2019-11-08 09:32:00 GMT 51.402237 -0.387342 18,000 36 293 -64
2019-11-08 09:31:57 GMT 51.400047 -0.389938 18,000 36 293 0
2019-11-08 09:31:54 GMT 51.396183 -0.394516 18,000 36 293 0
2019-11-08 09:31:51 GMT 51.392181 -0.399323 18,000 36 293 0
2019-11-08 09:31:48 GMT 51.390106 -0.401818 18,000 36 293 0
2019-11-08 09:31:45 GMT 51.385666 -0.407104 18,000 36 293 0
2019-11-08 09:31:42 GMT 51.382874 -0.410428 18,000 36 293 0
2019-11-08 09:31:39 GMT 51.379303 -0.414734 18,000 36 294 0
2019-11-08 09:31:36 GMT 51.377151 -0.417332 18,000 36 294 0
2019-11-08 09:31:33 GMT 51.372723 -0.422592 18,000 36 295 0
2019-11-08 09:31:30 GMT 51.370514 -0.425201 18,000 36 295 0
2019-11-08 09:31:27 GMT 51.366436 -0.430145 18,000 36 294 0
2019-11-08 09:31:24 GMT 51.364197 -0.432772 18,000 36 294 0
2019-11-08 09:31:21 GMT 51.360855 -0.436781 18,000 36 294 0
2019-11-08 09:31:18 GMT 51.353218 -0.445862 18,000 36 294 0
2019-11-08 09:31:15 GMT 51.353218 -0.445862 18,000 36 294 0
2019-11-08 09:31:12 GMT 51.351105 -0.448361 18,000 36 294 0
2019-11-08 09:31:09 GMT 51.347443 -0.452741 18,000 36 294 0
2019-11-08 09:31:06 GMT 51.344147 -0.456675 18,000 36 295 64
2019-11-08 09:31:03 GMT 51.340462 -0.461121 18,000 36 295 64
2019-11-08 09:31:00 GMT 51.333893 -0.468923 18,000 36 295 0
2019-11-08 09:30:57 GMT 51.333893 -0.468923 18,000 36 295 -64
2019-11-08 09:30:54 GMT 51.330460 -0.472932 18,025 36 295 -640
2019-11-08 09:30:51 GMT 51.327705 -0.476227 18,300 36 297 -704
2019-11-08 09:30:48 GMT 51.323364 -0.481394 18,075 36 296 -704
2019-11-08 09:30:45 GMT 51.321716 -0.483398 18,125 36 297 -704
2019-11-08 09:30:42 GMT 51.318211 -0.487518 18,150 36 297 -704
2019-11-08 09:30:39 GMT 51.314484 -0.492009 18,200 36 297 -704
2019-11-08 09:30:36 GMT 51.311226 -0.495834 18,200 36 297 -704
2019-11-08 09:30:33 GMT 51.307938 -0.499729 18,250 36 297 -704
2019-11-08 09:30:30 GMT 51.305328 -0.502921 18,275 36 297 -704
2019-11-08 09:30:27 GMT 51.301682 -0.507278 18,725 36 297 -704
2019-11-08 09:30:24 GMT 51.294891 -0.515392 18,450 36 297 -704
2019-11-08 09:30:21 GMT 51.294891 -0.515392 18,400 36 297 -704
2019-11-08 09:30:18 GMT 51.291348 -0.519562 18,475 36 297 -768
2019-11-08 09:30:15 GMT 51.287533 -0.524063 18,450 36 297 -768
2019-11-08 09:30:12 GMT 51.284367 -0.527802 18,550 36 297 -768
2019-11-08 09:30:09 GMT 51.280930 -0.531946 18,525 36 298 -768
2019-11-08 09:30:06 GMT 51.278595 -0.534693 18,550 36 297 -768
2019-11-08 09:30:03 GMT 51.274567 -0.539444 18,600 36 298 -768
2019-11-08 09:30:00 GMT 51.270767 -0.544046 18,650 36 298 -768
2019-11-08 09:29:57 GMT 51.267975 -0.547312 18,675 36 298 -768
2019-11-08 09:29:54 GMT 51.265095 -0.550690 18,725 36 298 -768
2019-11-08 09:29:51 GMT 51.261833 -0.554581 18,800 36 298 -768
2019-11-08 09:29:48 GMT 51.258389 -0.558624 18,825 36 298 -768
2019-11-08 09:29:45 GMT 51.255249 -0.562381 18,850 36 298 -768
2019-11-08 09:29:42 GMT 51.248798 -0.569992 18,900 36 298 -704
2019-11-08 09:29:36 GMT 51.245270 -0.574110 18,925 36 298 -704
2019-11-08 09:29:33 GMT 51.242004 -0.578003 18,975 36 298 -448
2019-11-08 09:29:30 GMT 51.237862 -0.582886 19,000 36 297 0
2019-11-08 09:29:27 GMT 51.235153 -0.586135 19,000 36 298 0
2019-11-08 09:29:24 GMT 51.230896 -0.591183 19,000 36 298 0
2019-11-08 09:29:21 GMT 51.228561 -0.593930 19,000 36 298 0
2019-11-08 09:29:18 GMT 51.224873 -0.598297 19,000 36 298 0
2019-11-08 09:29:15 GMT 51.220867 -0.603027 19,000 36 298 0
2019-11-08 09:29:12 GMT 51.218075 -0.606384 19,000 36 298 0
2019-11-08 09:29:09 GMT 51.215191 -0.609818 19,000 36 298 0
2019-11-08 09:29:06 GMT 51.212070 -0.613480 19,000 36 298 0
2019-11-08 09:29:03 GMT 51.208145 -0.618129 19,000 36 298 0
2019-11-08 09:29:00 GMT 51.199593 -0.628204 19,000 36 297 0
2019-11-08 09:28:57 GMT 51.198990 -0.628967 19,000 36 297 0
2019-11-08 09:28:54 GMT 51.194366 -0.634386 19,000 36 298 0
2019-11-08 09:28:51 GMT 51.194366 -0.634386 19,000 36 298 0
2019-11-08 09:28:48 GMT 51.191345 -0.637949 19,000 36 298 0
2019-11-08 09:28:45 GMT 51.187862 -0.642014 19,000 36 297 0
2019-11-08 09:28:42 GMT 51.184708 -0.645669 19,000 36 297 0
2019-11-08 09:28:39 GMT 51.181595 -0.649381 19,000 36 297 0
2019-11-08 09:28:36 GMT 51.178162 -0.653390 19,000 36 297 0
2019-11-08 09:28:33 GMT 51.175919 -0.656062 19,000 36 297 0
2019-11-08 09:28:30 GMT 51.173058 -0.659409 19,000 36 297 0
2019-11-08 09:28:27 GMT 51.168274 -0.665044 19,000 36 297 0
2019-11-08 09:28:24 GMT 51.165710 -0.668088 19,000 36 298 0
2019-11-08 09:28:21 GMT 51.161049 -0.673523 19,000 36 298 0
2019-11-08 09:28:18 GMT 51.157791 -0.677338 19,000 36 298 0
2019-11-08 09:28:15 GMT 51.154999 -0.680558 19,000 36 298 0
2019-11-08 09:28:12 GMT 51.152298 -0.683750 19,000 36 298 0
2019-11-08 09:28:09 GMT 51.147827 -0.689011 19,000 36 298 0
2019-11-08 09:28:06 GMT 51.145157 -0.692139 19,000 37 300 64
2019-11-08 09:28:03 GMT 51.141914 -0.695877 19,000 36 298 0
2019-11-08 09:28:00 GMT 51.139252 -0.699042 19,000 36 298 0
2019-11-08 09:27:57 GMT 51.132465 -0.707016 19,000 36 298 0
2019-11-08 09:27:51 GMT 51.127625 -0.712701 19,000 36 298 0
2019-11-08 09:27:48 GMT 51.124786 -0.716019 19,000 36 298 0
2019-11-08 09:27:45 GMT 51.121014 -0.720444 19,000 36 298 64
2019-11-08 09:27:42 GMT 51.115860 -0.726582 19,000 24 306 64
2019-11-08 09:27:39 GMT 51.111511 -0.731630 19,000 36 299 0
2019-11-08 09:27:36 GMT 51.111511 -0.731630 19,000 36 300 0
2019-11-08 09:27:33 GMT 51.108398 -0.735342 19,000 37 300 0
2019-11-08 09:27:30 GMT 51.105091 -0.739365 19,000 37 300 0
2019-11-08 09:27:26 GMT 51.100662 -0.744769 19,000 37 300 64
2019-11-08 09:27:23 GMT 51.096863 -0.749372 19,000 35 300 64
2019-11-08 09:27:20 GMT 51.094154 -0.752487 19,000 34 300 0
2019-11-08 09:27:17 GMT 51.091827 -0.755013 18,975 30 302 -128
2019-11-08 09:27:14 GMT 51.087799 -0.758947 19,000 29 303 -128
2019-11-08 09:27:11 GMT 51.083958 -0.762405 19,000 28 304 -64
2019-11-08 09:27:08 GMT 51.079330 -0.765999 19,000 20 310 0
2019-11-08 09:27:05 GMT 51.075348 -0.768738 19,000 21 309 64
2019-11-08 09:27:02 GMT 51.072647 -0.770416 18,975 18 311 0
2019-11-08 09:26:59 GMT 51.068253 -0.772755 18,975 0 333 -64
2019-11-08 09:26:55 GMT 51.062531 -0.775130 18,975 10 320 -64
2019-11-08 09:26:52 GMT 51.057999 -0.776392 18,975 7 323 0
2019-11-08 09:26:49 GMT 51.053375 -0.777208 18,975 5 325 0
2019-11-08 09:26:46 GMT 51.048115 -0.777817 19,000 2 331 -64
2019-11-08 09:26:43 GMT 51.042900 -0.778122 19,000 1 333 -64
2019-11-08 09:26:40 GMT 51.038498 -0.778248 19,000 0 333 0
2019-11-08 09:26:37 GMT 51.036102 -0.778275 19,000 0 333 0
2019-11-08 09:26:34 GMT 51.031174 -0.778396 19,000 0 333 0
2019-11-08 09:26:31 GMT 51.024281 -0.778580 19,000 0 333 0
2019-11-08 09:26:28 GMT 51.021149 -0.778693 19,000 0 333 0
2019-11-08 09:26:25 GMT 51.016113 -0.778767 19,000 1 333 0
2019-11-08 09:26:22 GMT 51.003525 -0.779139 19,000 0 333 0
2019-11-08 09:26:18 GMT 51.003525 -0.779139 19,000 0 333 0
2019-11-08 09:26:15 GMT 51.000412 -0.779213 19,000 0 333 0
2019-11-08 09:26:12 GMT 50.996704 -0.779287 19,000 0 333 0
2019-11-08 09:26:09 GMT 50.991440 -0.779435 19,000 0 333 0
2019-11-08 09:26:06 GMT 50.988388 -0.779495 19,000 0 333 -64
2019-11-08 09:26:03 GMT 50.982101 -0.779648 19,000 0 332 -64
2019-11-08 09:26:00 GMT 50.977295 -0.779732 19,000 0 332 -64
2019-11-08 09:25:57 GMT 50.973587 -0.779881 19,000 1 332 0
2019-11-08 09:25:54 GMT 50.963379 -0.780104 19,000 1 332 64
2019-11-08 09:25:51 GMT 50.963379 -0.780104 19,000 1 332 64
2019-11-08 09:25:48 GMT 50.958755 -0.780252 19,000 1 332 0
2019-11-08 09:25:45 GMT 50.955002 -0.780400 19,000 1 332 0
2019-11-08 09:25:42 GMT 50.951054 -0.780487 19,000 1 332 0
2019-11-08 09:25:39 GMT 50.945938 -0.780623 19,000 0 332 0
2019-11-08 09:25:35 GMT 50.939713 -0.780772 19,000 0 332 0
2019-11-08 09:25:32 GMT 50.933853 -0.780920 19,000 0 332 0
2019-11-08 09:25:29 GMT 50.930012 -0.781021 19,000 0 332 64
2019-11-08 09:25:26 GMT 50.925587 -0.781174 19,000 0 332 64
2019-11-08 09:25:23 GMT 50.920807 -0.781291 19,000 0 332 0
2019-11-08 09:25:20 GMT 50.915344 -0.781403 19,000 0 332 0
2019-11-08 09:25:17 GMT 50.911530 -0.781479 19,000 0 332 0
2019-11-08 09:25:14 GMT 50.906982 -0.781588 19,000 0 331 0
2019-11-08 09:25:11 GMT 50.902130 -0.781737 19,000 0 332 0
2019-11-08 09:25:08 GMT 50.898399 -0.781860 19,000 0 332 0
2019-11-08 09:25:05 GMT 50.892673 -0.782013 19,000 0 332 0
2019-11-08 09:25:02 GMT 50.888443 -0.782108 19,000 0 332 0
2019-11-08 09:24:56 GMT 50.880806 -0.782242 19,000 0 331 0
2019-11-08 09:24:53 GMT 50.876083 -0.782405 19,000 0 331 0
2019-11-08 09:24:50 GMT 50.872192 -0.782471 19,000 0 331 0
2019-11-08 09:24:47 GMT 50.866234 -0.782623 19,000 0 331 0
2019-11-08 09:24:44 GMT 50.861950 -0.782700 19,000 0 331 0
2019-11-08 09:24:41 GMT 50.852825 -0.782928 19,000 0 331 0
2019-11-08 09:24:38 GMT 50.852825 -0.782928 19,000 0 331 0
2019-11-08 09:24:35 GMT 50.847290 -0.782999 19,000 0 331 0
2019-11-08 09:24:32 GMT 50.844040 -0.783073 19,000 0 331 0
2019-11-08 09:24:29 GMT 50.837231 -0.783234 19,000 0 331 0
2019-11-08 09:24:26 GMT 50.834152 -0.783296 19,000 0 331 0
2019-11-08 09:24:23 GMT 50.828945 -0.783386 19,000 0 332 0
2019-11-08 09:24:20 GMT 50.824219 -0.783518 19,000 0 332 0
2019-11-08 09:24:17 GMT 50.820892 -0.783539 19,000 0 332 0
2019-11-08 09:24:14 GMT 50.815567 -0.783667 19,000 0 332 0
2019-11-08 09:24:11 GMT 50.810741 -0.783768 19,000 0 332 0
2019-11-08 09:24:07 GMT 50.805157 -0.783844 19,000 0 332 0
2019-11-08 09:24:04 GMT 50.795929 -0.784038 19,000 0 332 -64
2019-11-08 09:24:01 GMT 50.791332 -0.784073 19,000 0 332 0
2019-11-08 09:23:58 GMT 50.791332 -0.784073 19,000 0 333 64
2019-11-08 09:23:55 GMT 50.786728 -0.784186 19,000 0 333 -320
2019-11-08 09:23:52 GMT 50.782242 -0.784261 19,000 0 333 0
2019-11-08 09:23:49 GMT 50.777691 -0.784302 19,025 0 333 -832
2019-11-08 09:23:46 GMT 50.773129 -0.784378 19,050 0 333 -768
2019-11-08 09:23:43 GMT 50.766769 -0.784483 19,100 0 333 -832
2019-11-08 09:23:40 GMT 50.763107 -0.784483 19,125 0 333 -832
2019-11-08 09:23:37 GMT 50.759445 -0.784557 19,175 0 333 -768
2019-11-08 09:23:34 GMT 50.753300 -0.784683 19,200 0 334 -768
2019-11-08 09:23:30 GMT 50.748085 -0.784760 19,275 0 334 -768
2019-11-08 09:23:27 GMT 50.744202 -0.784780 19,475 0 334 -768
2019-11-08 09:23:24 GMT 50.738525 -0.784854 19,325 0 334 -768
2019-11-08 09:23:21 GMT 50.731464 -0.784912 19,375 0 334 -768
2019-11-08 09:23:18 GMT 50.728859 -0.784988 19,400 0 334 -768
2019-11-08 09:23:15 GMT 50.725067 -0.785003 19,450 0 334 -768
2019-11-08 09:23:12 GMT 50.718933 -0.785077 19,500 0 334 -768
2019-11-08 09:23:09 GMT 50.715912 -0.785077 19,525 0 334 -768
2019-11-08 09:23:06 GMT 50.711636 -0.785141 19,550 0 334 -768
2019-11-08 09:23:03 GMT 50.706802 -0.785151 19,575 0 334 -832
2019-11-08 09:23:00 GMT 50.701355 -0.785300 19,625 1 334 -832
2019-11-08 09:22:57 GMT 50.696690 -0.785599 19,725 4 334 -832
2019-11-08 09:22:54 GMT 50.691292 -0.786209 19,725 5 333 -832
2019-11-08 09:22:51 GMT 50.686123 -0.787048 19,775 8 333 -960
2019-11-08 09:22:47 GMT 50.681030 -0.788195 19,825 8 333 -960
2019-11-08 09:22:43 GMT 50.675369 -0.789566 19,900 9 334 -960
2019-11-08 09:22:40 GMT 50.671738 -0.790482 19,950 9 334 -1024
2019-11-08 09:22:37 GMT 50.666199 -0.791906 19,975 9 334 -960
2019-11-08 09:22:34 GMT 50.662720 -0.792750 21,100 9 335 -1344
2019-11-08 09:22:31 GMT 50.657867 -0.793985 20,250 9 334 -1088
2019-11-08 09:22:28 GMT 50.652878 -0.795280 20,200 9 334 -960
2019-11-08 09:22:25 GMT 50.649078 -0.796292 20,150 9 334 -960
2019-11-08 09:22:22 GMT 50.644367 -0.797474 20,250 9 334 -1024
2019-11-08 09:22:19 GMT 50.639664 -0.798662 20,350 9 334 -1088
2019-11-08 09:22:16 GMT 50.632965 -0.800412 20,575 9 334 -1152
2019-11-08 09:22:13 GMT 50.629704 -0.801260 20,400 9 334 -1088
2019-11-08 09:22:10 GMT 50.626583 -0.802076 20,450 9 334 -1152
2019-11-08 09:22:07 GMT 50.621090 -0.803487 20,525 9 335 -1280
2019-11-08 09:22:04 GMT 50.616440 -0.804749 20,575 9 335 -1344
2019-11-08 09:22:01 GMT 50.611080 -0.806159 20,650 9 335 -1344
2019-11-08 09:21:58 GMT 50.607216 -0.807198 20,750 9 334 -1344
2019-11-08 09:21:55 GMT 50.603394 -0.808146 20,825 9 334 -1344
2019-11-08 09:21:52 GMT 50.597954 -0.809648 20,850 9 334 -1344
2019-11-08 09:21:49 GMT 50.593994 -0.810687 20,925 9 334 -1280
2019-11-08 09:21:46 GMT 50.584965 -0.813063 21,050 9 335 -1344
2019-11-08 09:21:43 GMT 50.584965 -0.813063 21,050 9 335 -1280
2019-11-08 09:21:40 GMT 50.578308 -0.814844 21,100 9 335 -1344
2019-11-08 09:21:37 GMT 50.575375 -0.815586 21,200 9 336 -1472
2019-11-08 09:21:34 GMT 50.568512 -0.817397 21,225 9 337 -1664
2019-11-08 09:21:31 GMT 50.565460 -0.818185 21,525 9 339 -2368
2019-11-08 09:21:28 GMT 50.562378 -0.818987 21,525 9 339 -2368
2019-11-08 09:21:25 GMT 50.555496 -0.820783 21,600 9 339 -2368
2019-11-08 09:21:22 GMT 50.553028 -0.821451 21,725 9 339 -2368
2019-11-08 09:21:19 GMT 50.547684 -0.822746 21,750 9 340 -2368
2019-11-08 09:21:16 GMT 50.543720 -0.823752 22,150 9 340 -2432
2019-11-08 09:21:13 GMT 50.538391 -0.825131 22,050 9 340 -2496
2019-11-08 09:21:10 GMT 50.533432 -0.826350 22,150 9 341 -2368
2019-11-08 09:21:07 GMT 50.528366 -0.827661 22,300 9 341 -2368
2019-11-08 09:21:03 GMT 50.519932 -0.829765 22,500 8 342 -2240
2019-11-08 09:21:00 GMT 50.517838 -0.830284 22,525 8 343 -2240
2019-11-08 09:20:57 GMT 50.510971 -0.831998 22,725 8 343 -2496
2019-11-08 09:20:53 GMT 50.506618 -0.833031 22,850 8 343 -2496
2019-11-08 09:20:50 GMT 50.501541 -0.834293 22,950 8 344 -2432
2019-11-08 09:20:46 GMT 50.495087 -0.835901 23,350 8 345 -2240
2019-11-08 09:20:43 GMT 50.490646 -0.836985 23,300 8 345 -2304
2019-11-08 09:20:40 GMT 50.487347 -0.837856 23,350 8 345 -2304
2019-11-08 09:20:37 GMT 50.480209 -0.839587 24,275 9 348 -2240
2019-11-08 09:20:34 GMT 50.475174 -0.840888 23,575 9 346 -2368
2019-11-08 09:20:31 GMT 50.471470 -0.841865 23,725 9 347 -2368
2019-11-08 09:20:28 GMT 50.467758 -0.842767 24,275 9 348 -2240
2019-11-08 09:20:25 GMT 50.462814 -0.844068 24,000 9 347 -2304
2019-11-08 09:20:22 GMT 50.458015 -0.845279 24,250 9 348 -2240
2019-11-08 09:20:19 GMT 50.448196 -0.847803 24,250 9 349 -2368
2019-11-08 09:20:16 GMT 50.448196 -0.847803 24,325 9 349 -2496
2019-11-08 09:20:13 GMT 50.443401 -0.848991 24,400 9 350 -2496
2019-11-08 09:20:10 GMT 50.437683 -0.850429 24,500 9 350 -2432
2019-11-08 09:20:06 GMT 50.431854 -0.851960 24,750 9 352 -2048
2019-11-08 09:20:03 GMT 50.421707 -0.854484 24,775 9 352 -2112
2019-11-08 09:20:00 GMT 50.421707 -0.854484 24,875 9 353 -2240
2019-11-08 09:19:57 GMT 50.418320 -0.855343 25,550 9 354 -2368
2019-11-08 09:19:54 GMT 50.408344 -0.857899 25,475 9 355 -2560
2019-11-08 09:19:51 GMT 50.402527 -0.859383 25,350 9 355 -2560
2019-11-08 09:19:48 GMT 50.402527 -0.859383 25,450 9 355 -2560
2019-11-08 09:19:45 GMT 50.398338 -0.860497 26,925 9 365 -1920
2019-11-08 09:19:42 GMT 50.392456 -0.861993 25,725 9 355 -2624
2019-11-08 09:19:39 GMT 50.389355 -0.862798 26,050 9 355 -2624
2019-11-08 09:19:36 GMT 50.383942 -0.864161 25,850 9 355 -2624
2019-11-08 09:19:33 GMT 50.374741 -0.866547 26,075 9 355 -2624
2019-11-08 09:19:30 GMT 50.374741 -0.866547 26,700 9 355 -2624
2019-11-08 09:19:27 GMT 50.369751 -0.867775 26,275 9 355 -2624
2019-11-08 09:19:24 GMT 50.363281 -0.869405 26,375 9 355 -2560
2019-11-08 09:19:20 GMT 50.357437 -0.870811 26,525 8 355 -2624
2019-11-08 09:19:17 GMT 50.352264 -0.872112 26,725 8 355 -2688
2019-11-08 09:19:14 GMT 50.348236 -0.873052 27,475 8 355 -2752
2019-11-08 09:19:10 GMT 50.342056 -0.874601 27,100 9 354 -2624
2019-11-08 09:19:07 GMT 50.336380 -0.876015 27,150 9 354 -2496
2019-11-08 09:19:04 GMT 50.331299 -0.877316 27,400 9 354 -2368
2019-11-08 09:19:01 GMT 50.327316 -0.878328 27,450 9 355 -2112
2019-11-08 09:18:58 GMT 50.322830 -0.879484 27,700 9 356 -1920
2019-11-08 09:18:55 GMT 50.317932 -0.880713 28,025 9 359 -1792
2019-11-08 09:18:51 GMT 50.306862 -0.883583 27,775 9 358 -1792
2019-11-08 09:18:45 GMT 50.293736 -0.886998 28,825 9 373 -2112
2019-11-08 09:18:41 GMT 50.293736 -0.886998 28,025 9 362 -1792
2019-11-08 09:18:38 GMT 50.288055 -0.888408 28,350 9 365 -1920
2019-11-08 09:18:34 GMT 50.281399 -0.890041 28,250 9 365 -1856
2019-11-08 09:18:31 GMT 50.273949 -0.891897 28,525 9 365 -2112
2019-11-08 09:18:25 GMT 50.268311 -0.893362 28,600 9 366 -2112
2019-11-08 09:18:22 GMT 50.263103 -0.894718 29,100 9 372 -1856
2019-11-08 09:18:19 GMT 50.256073 -0.896499 28,700 9 368 -1920
2019-11-08 09:18:16 GMT 50.252701 -0.897410 28,800 9 369 -1728
2019-11-08 09:18:13 GMT 50.247509 -0.898726 29,000 9 372 -1856
2019-11-08 09:18:10 GMT 50.237915 -0.901240 29,100 9 373 -2048
2019-11-08 09:18:07 GMT 50.237915 -0.901240 29,250 9 373 -2112
2019-11-08 09:18:04 GMT 50.233154 -0.902469 29,250 9 373 -2112
2019-11-08 09:18:01 GMT 50.221161 -0.905407 29,375 8 374 -1984
2019-11-08 09:17:57 GMT 50.221161 -0.905407 29,425 8 376 -1536
2019-11-08 09:17:54 GMT 50.215714 -0.906733 29,500 8 378 -1280
2019-11-08 09:17:51 GMT 50.203903 -0.909625 29,650 8 381 -2176
2019-11-08 09:17:48 GMT 50.200443 -0.910455 30,425 9 414 -1664
2019-11-08 09:17:42 GMT 50.195023 -0.911793 29,825 8 381 -2112
2019-11-08 09:17:39 GMT 50.189690 -0.913053 30,000 8 384 -1728
2019-11-08 09:17:36 GMT 50.184570 -0.914315 30,050 8 385 -1728
2019-11-08 09:17:33 GMT 50.177631 -0.916022 30,150 9 385 -1856
2019-11-08 09:17:30 GMT 50.173073 -0.917136 30,200 9 386 -2048
2019-11-08 09:17:27 GMT 50.168839 -0.918226 30,325 9 388 -2176
2019-11-08 09:17:24 GMT 50.163071 -0.919744 30,550 9 389 -2048
2019-11-08 09:17:21 GMT 50.157715 -0.921117 30,550 9 390 -1984
2019-11-08 09:17:18 GMT 50.151096 -0.922852 31,075 9 390 -1984
2019-11-08 09:17:14 GMT 50.146271 -0.924080 30,725 9 392 -2304
2019-11-08 09:17:11 GMT 50.140808 -0.925524 30,900 9 392 -2368
2019-11-08 09:17:08 GMT 50.132950 -0.927550 31,050 9 393 -1920
2019-11-08 09:17:05 GMT 50.128235 -0.928706 31,075 9 394 -1856
2019-11-08 09:17:02 GMT 50.123726 -0.929904 31,175 9 395 -1600
2019-11-08 09:16:59 GMT 50.117676 -0.931388 31,325 9 397 -1984
2019-11-08 09:16:55 GMT 50.111435 -0.932947 31,400 9 397 -2240
2019-11-08 09:16:51 GMT 50.102142 -0.935283 31,625 9 399 -2048
2019-11-08 09:16:48 GMT 50.096817 -0.936659 31,700 9 400 -2048
2019-11-08 09:16:45 GMT 50.093857 -0.937380 31,750 9 399 -2048
2019-11-08 09:16:42 GMT 50.086437 -0.939183 31,825 8 402 -1728
2019-11-08 09:16:39 GMT 50.082947 -0.940073 31,875 8 403 -1472
2019-11-08 09:16:36 GMT 50.076096 -0.941644 32,025 8 405 -1792
2019-11-08 09:16:33 GMT 50.070602 -0.942945 33,600 9 407 -2560
2019-11-08 09:16:30 GMT 50.065796 -0.944101 32,625 9 408 -2176
2019-11-08 09:16:27 GMT 50.059341 -0.945692 32,450 9 407 -2496
2019-11-08 09:16:21 GMT 50.048218 -0.948438 32,625 9 409 -1920
2019-11-08 09:16:18 GMT 50.043468 -0.949649 32,700 8 410 -1984
2019-11-08 09:16:15 GMT 50.038513 -0.950896 32,850 8 410 -2944
2019-11-08 09:16:12 GMT 50.026245 -0.953881 33,075 8 410 -2944
2019-11-08 09:16:09 GMT 50.026245 -0.953881 33,250 8 410 -2496
2019-11-08 09:16:06 GMT 50.018425 -0.955736 33,250 8 410 -2496
2019-11-08 09:16:03 GMT 50.012978 -0.956998 33,300 8 411 -2048
2019-11-08 09:16:00 GMT 50.010132 -0.957690 33,350 8 412 -1728
2019-11-08 09:15:57 GMT 50.003448 -0.959352 33,575 9 413 -1472
2019-11-08 09:15:51 GMT 49.990906 -0.962460 33,700 9 414 -1472
2019-11-08 09:15:48 GMT 49.985733 -0.963761 33,725 9 414 -1408
2019-11-08 09:15:45 GMT 49.981750 -0.964773 33,800 9 414 -1472
2019-11-08 09:15:42 GMT 49.975502 -0.966351 33,875 9 414 -1472
2019-11-08 09:15:39 GMT 49.970169 -0.967664 34,000 9 414 -1600
2019-11-08 09:15:36 GMT 49.963028 -0.969471 34,025 9 414 -1536
2019-11-08 09:15:32 GMT 49.956070 -0.971206 34,125 9 414 -1536
2019-11-08 09:15:29 GMT 49.948517 -0.973157 34,250 9 414 -1600
2019-11-08 09:15:25 GMT 49.944080 -0.974220 34,375 9 414 -1600
2019-11-08 09:15:22 GMT 49.937656 -0.975853 34,475 9 414 -1664
2019-11-08 09:15:19 GMT 49.932487 -0.977115 35,175 9 423 -1216
2019-11-08 09:15:16 GMT 49.925320 -0.978897 34,575 9 414 -1600
2019-11-08 09:15:12 GMT 49.918430 -0.980678 34,700 9 416 -1600
2019-11-08 09:15:09 GMT 49.912846 -0.982089 34,750 9 419 -1600
2019-11-08 09:15:06 GMT 49.908142 -0.983276 34,825 9 417 -1600
2019-11-08 09:15:03 GMT 49.901642 -0.984939 34,900 9 419 -1600
2019-11-08 09:15:00 GMT 49.896362 -0.986246 34,925 9 418 -1600
2019-11-08 09:14:57 GMT 49.887894 -0.988398 35,125 9 419 -1600
2019-11-08 09:14:54 GMT 49.882553 -0.989709 35,600 9 422 -1216
2019-11-08 09:14:50 GMT 49.874622 -0.991665 35,250 9 420 -1344
2019-11-08 09:14:44 GMT 49.864941 -0.994040 35,375 9 420 -1280
2019-11-08 09:14:41 GMT 49.857468 -0.995925 35,425 9 420 -1344
2019-11-08 09:14:38 GMT 49.853302 -0.996937 35,475 9 420 -1280
2019-11-08 09:14:35 GMT 49.847576 -0.998420 35,550 9 420 -1280
2019-11-08 09:14:32 GMT 49.843388 -0.999459 35,625 9 421 -1280
2019-11-08 09:14:29 GMT 49.836960 -1.001129 35,700 9 422 -1216
2019-11-08 09:14:26 GMT 49.829002 -1.003096 35,725 9 423 -1216
2019-11-08 09:14:23 GMT 49.823318 -1.004454 36,325 8 425 -1280
2019-11-08 09:14:20 GMT 49.819645 -1.005397 35,850 9 423 -1216
2019-11-08 09:14:17 GMT 49.812057 -1.007273 36,025 9 424 -1280
2019-11-08 09:14:14 GMT 49.806286 -1.008664 36,075 9 425 -1280
2019-11-08 09:14:11 GMT 49.802628 -1.009586 36,075 9 425 -1280
2019-11-08 09:14:08 GMT 49.795853 -1.011248 36,600 8 424 -1344
2019-11-08 09:14:05 GMT 49.785187 -1.013850 36,275 9 424 -1408
2019-11-08 09:14:02 GMT 49.779427 -1.015196 36,350 9 424 -1408
2019-11-08 09:13:59 GMT 49.773743 -1.016597 36,375 9 424 -1408
2019-11-08 09:13:56 GMT 49.773743 -1.016597 36,425 9 424 -1344
2019-11-08 09:13:53 GMT 49.766922 -1.018331 36,450 9 424 -1344
2019-11-08 09:13:49 GMT 49.758804 -1.020318 36,550 9 424 -1216
2019-11-08 09:13:46 GMT 49.753494 -1.021654 36,675 9 426 -896
2019-11-08 09:13:43 GMT 49.747631 -1.023139 36,625 9 425 -896
2019-11-08 09:13:39 GMT 49.738083 -1.025559 36,725 9 426 -896
2019-11-08 09:13:36 GMT 49.732544 -1.027005 36,750 9 426 -896
2019-11-08 09:13:33 GMT 49.727985 -1.028112 36,800 9 427 -832
2019-11-08 09:13:29 GMT 49.720024 -1.030191 36,950 9 428 -832
2019-11-08 09:13:26 GMT 49.712296 -1.032121 36,900 9 428 -832
2019-11-08 09:13:23 GMT 49.699078 -1.035313 37,025 8 425 -960
2019-11-08 09:13:19 GMT 49.699078 -1.035313 37,000 9 427 -896
2019-11-08 09:13:16 GMT 49.695957 -1.036055 37,050 8 427 -896
2019-11-08 09:13:13 GMT 49.689114 -1.037763 37,100 8 426 -960
2019-11-08 09:13:10 GMT 49.683949 -1.039025 37,350 8 425 -960
2019-11-08 09:13:07 GMT 49.677521 -1.040521 37,200 8 426 -960
2019-11-08 09:13:03 GMT 49.670288 -1.042328 37,475 8 425 -960
2019-11-08 09:13:00 GMT 49.662857 -1.044072 37,775 8 423 -1024
2019-11-08 09:12:56 GMT 49.655876 -1.045780 37,325 8 424 -896
2019-11-08 09:12:53 GMT 49.649872 -1.047190 37,475 8 424 -960
2019-11-08 09:12:47 GMT 49.640121 -1.049628 37,525 8 423 -1024
2019-11-08 09:12:43 GMT 49.629852 -1.052089 37,550 8 423 -1024
2019-11-08 09:12:40 GMT 49.620495 -1.054391 37,650 9 426 -64
2019-11-08 09:12:34 GMT 49.614120 -1.055989 37,875 8 424 -1024
2019-11-08 09:12:31 GMT 49.607849 -1.057506 37,750 8 424 -1024
2019-11-08 09:12:27 GMT 49.599918 -1.059364 37,900 9 425 -768
2019-11-08 09:12:23 GMT 49.590981 -1.061591 37,900 8 425 -960
2019-11-08 09:12:20 GMT 49.580429 -1.064156 38,000 9 425 -704
2019-11-08 09:12:17 GMT 49.580429 -1.064156 37,975 9 425 -256
2019-11-08 09:12:13 GMT 49.565006 -1.067901 38,000 9 426 -64
2019-11-08 09:12:09 GMT 49.565006 -1.067901 38,000 9 426 -64
2019-11-08 09:12:06 GMT 49.560013 -1.069143 38,000 9 426 0
2019-11-08 09:12:03 GMT 49.551361 -1.071239 38,000 8 428 0
2019-11-08 09:12:00 GMT 49.546692 -1.072396 38,000 9 428 0
2019-11-08 09:11:57 GMT 49.540146 -1.073986 38,000 9 428 0
2019-11-08 09:11:53 GMT 49.534470 -1.075359 38,000 8 428 0
2019-11-08 09:11:49 GMT 49.525715 -1.077477 38,000 9 428 0
2019-11-08 09:11:46 GMT 49.521805 -1.078367 38,000 9 428 0
2019-11-08 09:11:43 GMT 49.514786 -1.080130 38,000 9 428 0
2019-11-08 09:11:40 GMT 49.507690 -1.081864 38,000 9 428 0
2019-11-08 09:11:36 GMT 49.500687 -1.083527 38,000 9 428 0
2019-11-08 09:11:33 GMT 49.496201 -1.084603 38,000 9 428 0
2019-11-08 09:11:30 GMT 49.489635 -1.086236 38,000 8 428 0
2019-11-08 09:11:27 GMT 49.481628 -1.088092 38,000 8 428 0
2019-11-08 09:11:23 GMT 49.476334 -1.089381 38,000 9 428 0
2019-11-08 09:11:20 GMT 49.470692 -1.090764 38,000 9 428 0
2019-11-08 09:11:17 GMT 49.457844 -1.093882 38,000 9 428 0
2019-11-08 09:11:11 GMT 49.451420 -1.095441 38,000 9 428 0
2019-11-08 09:11:08 GMT 49.447556 -1.096332 38,000 9 428 -64
2019-11-08 09:11:05 GMT 49.439301 -1.098416 38,000 9 428 -64
2019-11-08 09:11:02 GMT 49.435589 -1.099301 38,000 9 427 0
2019-11-08 09:10:59 GMT 49.420460 -1.103042 38,000 9 427 0
2019-11-08 09:10:56 GMT 49.420460 -1.103042 38,025 9 427 0
2019-11-08 09:10:53 GMT 49.416969 -1.103909 38,000 9 427 0
2019-11-08 09:10:49 GMT 49.409363 -1.105816 38,000 9 427 64
2019-11-08 09:10:45 GMT 49.402493 -1.107451 38,000 3 425 0
2019-11-08 09:10:41 GMT 49.393890 -1.109549 38,000 9 427 0
2019-11-08 09:10:38 GMT 49.387596 -1.111065 38,000 9 427 64
2019-11-08 09:10:35 GMT 49.381542 -1.112583 38,000 9 427 0
2019-11-08 09:10:32 GMT 49.376862 -1.113704 38,000 9 427 -64
2019-11-08 09:10:29 GMT 49.364086 -1.116775 38,000 9 427 0
2019-11-08 09:10:26 GMT 49.364086 -1.116775 38,000 9 427 0
2019-11-08 09:10:22 GMT 49.356453 -1.118726 38,000 9 427 64
2019-11-08 09:10:18 GMT 49.348770 -1.120605 38,000 9 427 0
2019-11-08 09:10:15 GMT 49.342300 -1.122268 38,000 9 427 64
2019-11-08 09:10:11 GMT 49.336433 -1.123713 38,000 9 427 0
2019-11-08 09:10:07 GMT 49.325867 -1.126315 38,000 9 427 0
2019-11-08 09:10:03 GMT 49.321014 -1.127507 38,000 9 427 0
2019-11-08 09:10:00 GMT 49.313690 -1.129338 38,000 9 427 -64
2019-11-08 09:09:57 GMT 49.308472 -1.130606 38,000 9 427 0
2019-11-08 09:09:54 GMT 49.302063 -1.132226 38,000 3 425 0
2019-11-08 09:09:51 GMT 49.297192 -1.133399 38,000 8 426 0
2019-11-08 09:09:47 GMT 49.288391 -1.135350 38,000 6 426 0
2019-11-08 09:09:44 GMT 49.282528 -1.136362 38,000 5 425 0
2019-11-08 09:09:41 GMT 49.276886 -1.137085 38,000 3 425 0
2019-11-08 09:09:38 GMT 49.269630 -1.137880 38,000 3 425 0
2019-11-08 09:09:33 GMT 49.259354 -1.138775 38,000 3 425 0
2019-11-08 09:09:30 GMT 49.247799 -1.139832 38,000 3 425 0
2019-11-08 09:09:27 GMT 49.247799 -1.139832 38,000 3 425 0
2019-11-08 09:09:22 GMT 49.240070 -1.140482 38,000 3 425 0
2019-11-08 09:09:19 GMT 49.233925 -1.141060 38,000 3 425 0
2019-11-08 09:09:16 GMT 49.227455 -1.141639 38,000 3 425 0
2019-11-08 09:09:12 GMT 49.211815 -1.142940 38,000 3 425 0
2019-11-08 09:09:09 GMT 49.211815 -1.142940 38,000 3 425 0
2019-11-08 09:09:05 GMT 49.205204 -1.143518 38,000 3 425 -64
2019-11-08 09:09:02 GMT 49.200268 -1.143951 38,000 3 425 -64
2019-11-08 09:08:59 GMT 49.193939 -1.144480 38,000 3 424 0
2019-11-08 09:08:55 GMT 49.178329 -1.145818 38,000 3 424 -64
2019-11-08 09:08:51 GMT 49.178329 -1.145818 38,000 3 424 -64
2019-11-08 09:08:48 GMT 49.171738 -1.146381 38,000 3 424 -64
2019-11-08 09:08:45 GMT 49.166702 -1.146804 38,000 3 424 0
2019-11-08 09:08:42 GMT 49.160934 -1.147297 38,000 3 424 0
2019-11-08 09:08:39 GMT 49.154835 -1.147782 38,000 3 424 0
2019-11-08 09:08:36 GMT 49.147522 -1.148423 38,000 3 424 0
2019-11-08 09:08:33 GMT 49.142403 -1.148866 38,000 3 424 0
2019-11-08 09:08:28 GMT 49.134350 -1.149517 38,000 3 423 0
2019-11-08 09:08:25 GMT 49.126064 -1.150240 38,000 3 423 64
2019-11-08 09:08:21 GMT 49.119827 -1.150747 38,000 3 423 0
2019-11-08 09:08:18 GMT 49.114197 -1.151240 38,000 3 423 64
2019-11-08 09:08:15 GMT 49.108376 -1.151757 38,000 3 423 0
2019-11-08 09:08:12 GMT 49.101997 -1.152263 38,000 3 423 0
2019-11-08 09:08:09 GMT 49.095795 -1.152790 38,000 3 423 0
2019-11-08 09:08:06 GMT 49.088287 -1.153494 38,000 3 423 0
2019-11-08 09:08:03 GMT 49.084263 -1.153854 38,000 3 423 64
2019-11-08 09:08:00 GMT 49.070663 -1.155043 38,000 3 423 -64
2019-11-08 09:07:57 GMT 49.070663 -1.155043 38,000 3 423 0
2019-11-08 09:07:52 GMT 49.062698 -1.155748 38,000 3 424 0
2019-11-08 09:07:46 GMT 49.051575 -1.156734 38,000 3 423 -64
2019-11-08 09:07:42 GMT 49.041714 -1.157612 38,000 3 423 -64
2019-11-08 09:07:39 GMT 49.029465 -1.158635 38,000 3 423 0
2019-11-08 09:07:36 GMT 49.029465 -1.158635 38,000 3 423 0
2019-11-08 09:07:32 GMT 49.024429 -1.159128 38,000 3 423 0
2019-11-08 09:07:29 GMT 49.011730 -1.160214 38,000 3 423 0
2019-11-08 09:07:26 GMT 49.011730 -1.160214 38,000 3 423 64
2019-11-08 09:07:22 GMT 49.003029 -1.160937 38,000 3 423 0
2019-11-08 09:07:19 GMT 48.992832 -1.161732 38,000 2 423 64
2019-11-08 09:07:16 GMT 48.992832 -1.161732 38,000 2 423 64
2019-11-08 09:07:11 GMT 48.982864 -1.162508 38,000 2 423 0
2019-11-08 09:07:08 GMT 48.976776 -1.163001 38,000 2 424 0
2019-11-08 09:07:05 GMT 48.972427 -1.163354 38,000 2 424 0
2019-11-08 09:07:02 GMT 48.965366 -1.163900 38,000 2 424 0
2019-11-08 09:06:59 GMT 48.960663 -1.164262 38,000 2 424 0
2019-11-08 09:06:56 GMT 48.953915 -1.164840 38,000 3 424 0
2019-11-08 09:06:53 GMT 48.947350 -1.165346 38,000 3 424 0
2019-11-08 09:06:50 GMT 48.940430 -1.165889 38,000 3 424 64
2019-11-08 09:06:45 GMT 48.932640 -1.166575 38,000 3 424 0
2019-11-08 09:06:42 GMT 48.924133 -1.167297 38,000 3 424 64
2019-11-08 09:06:39 GMT 48.920536 -1.167659 38,000 3 424 64
2019-11-08 09:06:36 GMT 48.912277 -1.168354 38,000 3 424 64
2019-11-08 09:06:33 GMT 48.902985 -1.169177 38,000 3 425 0
2019-11-08 09:06:30 GMT 48.902985 -1.169177 38,000 3 425 0
2019-11-08 09:06:27 GMT 48.895844 -1.169762 38,000 3 425 -64
2019-11-08 09:06:24 GMT 48.890213 -1.170255 38,000 3 425 -64
2019-11-08 09:06:21 GMT 48.879803 -1.171128 38,000 3 425 0
2019-11-08 09:06:15 GMT 48.873871 -1.171593 38,000 3 425 0
2019-11-08 09:06:12 GMT 48.865139 -1.172357 38,000 3 425 0
2019-11-08 09:06:09 GMT 48.861694 -1.172650 38,000 3 425 0
2019-11-08 09:06:06 GMT 48.854645 -1.173213 38,000 3 426 0
2019-11-08 09:06:03 GMT 48.849731 -1.173586 38,000 3 426 0
2019-11-08 09:05:59 GMT 48.841957 -1.174236 38,000 3 426 0
2019-11-08 09:05:56 GMT 48.830040 -1.175248 38,000 3 426 0
2019-11-08 09:05:53 GMT 48.830040 -1.175248 38,000 3 426 0
2019-11-08 09:05:49 GMT 48.822372 -1.175960 38,000 3 426 0
2019-11-08 09:05:46 GMT 48.810394 -1.176910 38,000 2 427 -64
2019-11-08 09:05:38 GMT 48.801727 -1.177579 38,000 2 427 0
2019-11-08 09:05:35 GMT 48.788864 -1.178565 38,000 2 427 0
2019-11-08 09:05:32 GMT 48.788864 -1.178565 38,000 2 427 64
2019-11-08 09:05:28 GMT 48.772568 -1.179833 38,000 3 427 -64
2019-11-08 09:05:24 GMT 48.772568 -1.179833 38,000 2 427 0
2019-11-08 09:05:21 GMT 48.765003 -1.180452 38,000 3 427 -64
2019-11-08 09:05:18 GMT 48.755322 -1.181247 38,000 3 428 -64
2019-11-08 09:05:15 GMT 48.755322 -1.181247 38,000 3 428 -64
2019-11-08 09:05:12 GMT 48.749588 -1.181664 38,000 3 428 -64
2019-11-08 09:05:08 GMT 48.741714 -1.182368 38,000 3 428 0
2019-11-08 09:05:04 GMT 48.732979 -1.183054 38,000 3 428 0
2019-11-08 09:05:01 GMT 48.728622 -1.183425 38,000 3 428 0
2019-11-08 09:04:58 GMT 48.722626 -1.183918 38,000 2 428 0
2019-11-08 09:04:55 GMT 48.715805 -1.184481 38,000 3 428 0
2019-11-08 09:04:52 GMT 48.709934 -1.185006 38,000 3 428 0
2019-11-08 09:04:48 GMT 48.701843 -1.185608 38,000 3 428 0
2019-11-08 09:04:43 GMT 48.693035 -1.186307 38,000 3 428 0
2019-11-08 09:04:40 GMT 48.686829 -1.186805 38,000 3 428 0
2019-11-08 09:04:37 GMT 48.681381 -1.187228 38,000 3 428 0
2019-11-08 09:04:34 GMT 48.665771 -1.188495 38,000 3 429 0
2019-11-08 09:04:31 GMT 48.665771 -1.188495 38,000 3 429 0
2019-11-08 09:04:28 GMT 48.659611 -1.188981 38,000 3 429 0
2019-11-08 09:04:25 GMT 48.655472 -1.189340 38,000 3 429 0
2019-11-08 09:04:21 GMT 48.649368 -1.189848 38,000 3 429 0
2019-11-08 09:04:18 GMT 48.642296 -1.190426 38,000 2 430 64
2019-11-08 09:04:15 GMT 48.635265 -1.191005 38,000 3 430 0
2019-11-08 09:04:12 GMT 48.629288 -1.191453 38,000 2 430 64
2019-11-08 09:04:07 GMT 48.622044 -1.192017 38,000 2 430 64
2019-11-08 09:04:04 GMT 48.615108 -1.192523 38,000 2 431 0
2019-11-08 09:04:01 GMT 48.608734 -1.193003 38,000 2 431 0
2019-11-08 09:03:57 GMT 48.599747 -1.193679 38,000 2 431 -64
2019-11-08 09:03:53 GMT 48.592854 -1.194185 38,000 2 431 -64
2019-11-08 09:03:50 GMT 48.587360 -1.194619 38,000 3 430 64
2019-11-08 09:03:47 GMT 48.581497 -1.195052 38,000 3 431 -64
2019-11-08 09:03:44 GMT 48.574402 -1.195679 38,025 3 430 64
2019-11-08 09:03:41 GMT 48.558792 -1.196946 38,000 3 430 64
2019-11-08 09:03:37 GMT 48.558792 -1.196946 38,000 3 430 0
2019-11-08 09:03:34 GMT 48.552750 -1.197510 38,000 3 430 0
2019-11-08 09:03:31 GMT 48.548813 -1.197862 38,000 3 430 0
2019-11-08 09:03:25 GMT 48.537876 -1.198811 38,000 3 430 0
2019-11-08 09:03:22 GMT 48.531326 -1.199411 38,000 3 430 0
2019-11-08 09:03:18 GMT 48.524643 -1.199975 38,000 3 430 0
2019-11-08 09:03:15 GMT 48.517532 -1.200618 38,000 3 430 64
2019-11-08 09:03:11 GMT 48.509537 -1.201383 38,000 3 430 0
2019-11-08 09:03:08 GMT 48.497269 -1.202510 38,000 3 429 0
2019-11-08 09:03:05 GMT 48.497269 -1.202510 38,000 3 430 0
2019-11-08 09:03:01 GMT 48.488625 -1.203364 38,000 3 430 64
2019-11-08 09:02:56 GMT 48.479546 -1.204159 38,000 3 430 64
2019-11-08 09:02:53 GMT 48.473465 -1.204693 38,000 3 430 0
2019-11-08 09:02:50 GMT 48.468430 -1.205116 38,000 3 430 -64
2019-11-08 09:02:47 GMT 48.461334 -1.205750 38,000 3 430 -64
2019-11-08 09:02:43 GMT 48.453106 -1.206472 38,000 3 430 -128
2019-11-08 09:02:40 GMT 48.448776 -1.206834 38,000 3 429 -128
2019-11-08 09:02:37 GMT 48.441605 -1.207440 38,000 3 430 0
2019-11-08 09:02:33 GMT 48.433777 -1.208074 38,000 3 429 0
2019-11-08 09:02:30 GMT 48.427689 -1.208568 38,000 3 429 -64
2019-11-08 09:02:26 GMT 48.419724 -1.209271 38,000 3 429 -64
2019-11-08 09:02:22 GMT 48.411396 -1.210014 38,000 3 427 768
2019-11-08 09:02:18 GMT 48.404709 -1.210609 38,000 3 428 320
2019-11-08 09:02:15 GMT 48.399014 -1.211098 37,950 3 427 832
2019-11-08 09:02:12 GMT 48.392487 -1.211665 37,950 3 427 832
2019-11-08 09:02:09 GMT 48.386124 -1.212229 37,900 3 427 832
2019-11-08 09:02:06 GMT 48.381088 -1.212651 37,900 3 427 832
2019-11-08 09:02:02 GMT 48.373131 -1.213266 37,725 3 426 832
2019-11-08 09:01:58 GMT 48.364887 -1.213989 37,750 3 427 832
2019-11-08 09:01:54 GMT 48.350464 -1.215186 37,675 3 417 1088
2019-11-08 09:01:51 GMT 48.350464 -1.215186 37,650 3 427 832
2019-11-08 09:01:48 GMT 48.345428 -1.215679 37,600 3 426 832
2019-11-08 09:01:44 GMT 48.337234 -1.216313 37,500 3 426 896
2019-11-08 09:01:41 GMT 48.332657 -1.216736 37,525 3 426 832
2019-11-08 09:01:37 GMT 48.324600 -1.217440 37,475 3 426 832
2019-11-08 09:01:34 GMT 48.318058 -1.217965 37,450 3 424 768
2019-11-08 09:01:31 GMT 48.309265 -1.218708 37,350 3 426 896
2019-11-08 09:01:27 GMT 48.304962 -1.219130 37,325 3 426 896
2019-11-08 09:01:24 GMT 48.291962 -1.220187 37,225 3 425 832
2019-11-08 09:01:18 GMT 48.287109 -1.220609 37,200 3 425 832
2019-11-08 09:01:15 GMT 48.280956 -1.221145 37,150 3 425 832
2019-11-08 09:01:11 GMT 48.264862 -1.222440 37,075 3 424 768
2019-11-08 09:01:07 GMT 48.264862 -1.222440 37,050 3 424 768
2019-11-08 09:01:04 GMT 48.256989 -1.223074 37,000 3 424 768
2019-11-08 09:01:01 GMT 48.245132 -1.223990 36,925 2 424 768
2019-11-08 09:00:58 GMT 48.245132 -1.223990 36,900 2 424 768
2019-11-08 09:00:53 GMT 48.236572 -1.224694 36,850 2 423 512
2019-11-08 09:00:50 GMT 48.231842 -1.225048 36,825 2 422 448
2019-11-08 09:00:47 GMT 48.226162 -1.225482 36,825 2 422 448
2019-11-08 09:00:43 GMT 48.218716 -1.226060 36,800 3 419 768
2019-11-08 09:00:40 GMT 48.211731 -1.226638 36,750 3 419 704
2019-11-08 09:00:37 GMT 48.206192 -1.227072 36,725 3 419 704
2019-11-08 09:00:33 GMT 48.197708 -1.227793 36,650 3 418 768
2019-11-08 09:00:30 GMT 48.192459 -1.228156 36,475 3 418 960
2019-11-08 09:00:26 GMT 48.185486 -1.228708 36,575 3 418 960
2019-11-08 09:00:23 GMT 48.177654 -1.229385 36,525 3 418 896
2019-11-08 09:00:20 GMT 48.173374 -1.229746 36,475 3 417 896
2019-11-08 09:00:17 GMT 48.166763 -1.230252 36,225 3 417 960
2019-11-08 09:00:14 GMT 48.162014 -1.230613 36,400 3 417 960
2019-11-08 09:00:11 GMT 48.155365 -1.231155 36,250 3 417 1152
2019-11-08 09:00:07 GMT 48.142319 -1.232254 36,000 3 417 1088
2019-11-08 09:00:00 GMT 48.134872 -1.232863 35,225 3 417 1344
2019-11-08 08:59:57 GMT 48.130127 -1.233215 36,075 3 417 1088
2019-11-08 08:59:54 GMT 48.122086 -1.233902 36,000 3 417 1088
2019-11-08 08:59:51 GMT 48.114899 -1.234451 35,950 3 417 1088
2019-11-08 08:59:48 GMT 48.109921 -1.234906 35,900 3 417 1152
2019-11-08 08:59:44 GMT 48.103313 -1.235399 35,775 3 417 1344
2019-11-08 08:59:40 GMT 48.095856 -1.235962 35,725 3 417 1344
2019-11-08 08:59:37 GMT 48.090225 -1.236443 35,700 3 416 960
2019-11-08 08:59:34 GMT 48.084595 -1.236855 35,600 3 418 1216
2019-11-08 08:59:31 GMT 48.079559 -1.237267 35,500 3 418 1152
2019-11-08 08:59:28 GMT 48.072166 -1.237793 35,500 3 416 960
2019-11-08 08:59:25 GMT 48.066723 -1.238216 35,450 3 417 1152
2019-11-08 08:59:22 GMT 48.058823 -1.238846 35,350 3 417 1088
2019-11-08 08:59:16 GMT 48.049126 -1.239624 35,275 3 416 1024
2019-11-08 08:59:12 GMT 48.042664 -1.240219 35,175 3 416 832
2019-11-08 08:59:09 GMT 48.029434 -1.241318 34,325 3 415 1856
2019-11-08 08:59:05 GMT 48.029434 -1.241318 35,150 3 415 896
2019-11-08 08:59:02 GMT 48.023666 -1.241798 34,275 3 414 1088
2019-11-08 08:58:59 GMT 48.009201 -1.242966 35,000 3 414 1152
2019-11-08 08:58:56 GMT 48.009201 -1.242966 34,950 3 414 1152
2019-11-08 08:58:51 GMT 48.001282 -1.243652 34,875 3 414 1280
2019-11-08 08:58:47 GMT 47.995262 -1.244202 34,750 3 414 1408
2019-11-08 08:58:44 GMT 47.989243 -1.244682 34,675 3 414 1536
2019-11-08 08:58:40 GMT 47.980087 -1.245438 34,550 3 415 1472
2019-11-08 08:58:37 GMT 47.973850 -1.245962 34,425 3 415 1408
2019-11-08 08:58:34 GMT 47.969742 -1.246330 34,425 3 415 1408
2019-11-08 08:58:31 GMT 47.962967 -1.246880 34,325 3 415 1344
2019-11-08 08:58:28 GMT 47.957840 -1.247292 34,300 3 415 1280
2019-11-08 08:58:24 GMT 47.949970 -1.247934 34,200 3 415 1152
2019-11-08 08:58:21 GMT 47.943832 -1.248459 34,150 3 414 1280
2019-11-08 08:58:18 GMT 47.939850 -1.248734 34,100 3 414 1280
2019-11-08 08:58:14 GMT 47.931107 -1.249489 33,975 3 415 1472
2019-11-08 08:58:10 GMT 47.918884 -1.250519 33,850 3 415 1408
2019-11-08 08:58:03 GMT 47.908539 -1.251385 33,725 3 415 1472
2019-11-08 08:57:59 GMT 47.902405 -1.251892 33,650 3 415 1536
2019-11-08 08:57:56 GMT 47.896339 -1.252371 33,550 3 416 1472
2019-11-08 08:57:53 GMT 47.882538 -1.253403 33,375 3 416 1472
2019-11-08 08:57:49 GMT 47.882538 -1.253403 33,375 3 416 1408
2019-11-08 08:57:45 GMT 47.868595 -1.254554 33,200 3 416 1600
2019-11-08 08:57:42 GMT 47.868595 -1.254554 33,200 3 416 1600
2019-11-08 08:57:39 GMT 47.863495 -1.254913 33,125 3 416 1664
2019-11-08 08:57:36 GMT 47.856674 -1.255463 32,675 2 416 1536
2019-11-08 08:57:33 GMT 47.853241 -1.255737 32,975 2 416 1536
2019-11-08 08:57:29 GMT 47.837036 -1.256973 32,850 3 416 1472
2019-11-08 08:57:26 GMT 47.837036 -1.256973 31,950 3 415 1856
2019-11-08 08:57:23 GMT 47.833031 -1.257301 32,725 3 416 1408
2019-11-08 08:57:19 GMT 47.825134 -1.257935 32,550 3 416 1664
2019-11-08 08:57:16 GMT 47.814316 -1.258780 32,550 3 416 1536
2019-11-08 08:57:13 GMT 47.814316 -1.258780 32,325 3 416 1728
2019-11-08 08:57:09 GMT 47.804867 -1.259554 32,350 3 416 1728
2019-11-08 08:57:03 GMT 47.794994 -1.260259 32,225 2 416 1600
2019-11-08 08:56:58 GMT 47.784943 -1.261033 31,975 3 416 1536
2019-11-08 08:56:55 GMT 47.778610 -1.261526 32,000 3 416 1408
2019-11-08 08:56:52 GMT 47.773819 -1.261917 31,950 3 416 1408
2019-11-08 08:56:49 GMT 47.768326 -1.262398 31,875 3 415 1344
2019-11-08 08:56:46 GMT 47.762318 -1.262864 31,875 3 415 1344
2019-11-08 08:56:42 GMT 47.755566 -1.263428 31,725 3 415 1408
2019-11-08 08:56:38 GMT 47.746536 -1.264132 31,550 3 414 1920
2019-11-08 08:56:35 GMT 47.736340 -1.264977 31,425 3 415 1856
2019-11-08 08:56:28 GMT 47.727680 -1.265681 31,350 3 415 1728
2019-11-08 08:56:25 GMT 47.722515 -1.266104 31,225 3 415 1792
2019-11-08 08:56:22 GMT 47.717396 -1.266456 31,125 3 415 1856
2019-11-08 08:56:18 GMT 47.707523 -1.267301 30,900 3 416 1728
2019-11-08 08:56:15 GMT 47.701054 -1.267794 30,800 3 416 1472
2019-11-08 08:56:12 GMT 47.698013 -1.268028 30,850 3 415 1408
2019-11-08 08:56:05 GMT 47.682953 -1.269264 30,725 3 415 1792
2019-11-08 08:56:02 GMT 47.677822 -1.269696 30,525 3 416 2176
2019-11-08 08:55:58 GMT 47.668884 -1.270400 30,375 3 417 1600
2019-11-08 08:55:55 GMT 47.663391 -1.270822 30,325 3 417 1728
2019-11-08 08:55:52 GMT 47.658508 -1.271255 30,250 3 417 1408
2019-11-08 08:55:49 GMT 47.653748 -1.271599 30,150 3 416 1408
2019-11-08 08:55:45 GMT 47.644073 -1.272372 30,050 3 416 1472
2019-11-08 08:55:42 GMT 47.638954 -1.272794 30,000 3 416 1536
2019-11-08 08:55:39 GMT 47.632530 -1.273287 29,850 3 415 1472
2019-11-08 08:55:36 GMT 47.625961 -1.273865 29,800 3 415 1536
2019-11-08 08:55:32 GMT 47.620056 -1.274277 29,775 3 415 1600
2019-11-08 08:55:26 GMT 47.600693 -1.275787 29,425 2 413 1408
2019-11-08 08:55:22 GMT 47.600693 -1.275787 29,450 2 413 1408
2019-11-08 08:55:19 GMT 47.594913 -1.276245 29,250 3 412 1280
2019-11-08 08:55:16 GMT 47.589420 -1.276668 29,325 3 412 1216
2019-11-08 08:55:13 GMT 47.583694 -1.277090 29,175 3 410 1280
2019-11-08 08:55:09 GMT 47.576340 -1.277710 29,100 3 409 1216
2019-11-08 08:55:05 GMT 47.567448 -1.278428 29,025 3 406 1536
2019-11-08 08:55:01 GMT 47.561737 -1.278877 29,025 3 406 1536
2019-11-08 08:54:57 GMT 47.553314 -1.279564 28,900 3 405 1536
2019-11-08 08:54:54 GMT 47.547478 -1.280048 28,875 3 406 1600
2019-11-08 08:54:51 GMT 47.542728 -1.280400 28,800 3 405 1344
2019-11-08 08:54:45 GMT 47.530766 -1.281386 28,650 3 401 1536
2019-11-08 08:54:41 GMT 47.524567 -1.281830 28,600 3 401 1856
2019-11-08 08:54:37 GMT 47.516190 -1.282516 28,425 3 401 1792
2019-11-08 08:54:34 GMT 47.509003 -1.283134 28,350 3 401 1664
2019-11-08 08:54:31 GMT 47.505386 -1.283409 28,050 3 400 1600
2019-11-08 08:54:27 GMT 47.496735 -1.284062 28,150 3 399 1600
2019-11-08 08:54:24 GMT 47.493107 -1.284344 28,075 3 398 1728
2019-11-08 08:54:21 GMT 47.486664 -1.284851 28,000 3 398 1728
2019-11-08 08:54:14 GMT 47.473042 -1.285964 27,775 3 395 1792
2019-11-08 08:54:11 GMT 47.467941 -1.286362 27,750 3 396 1664
2019-11-08 08:54:05 GMT 47.457504 -1.287186 27,425 3 393 1280
2019-11-08 08:54:00 GMT 47.449440 -1.287865 27,425 3 394 1664
2019-11-08 08:53:54 GMT 47.438034 -1.288710 27,275 3 392 1344
2019-11-08 08:53:51 GMT 47.431595 -1.289246 27,175 3 390 1600
2019-11-08 08:53:45 GMT 47.418915 -1.290276 27,000 3 389 1792
2019-11-08 08:53:40 GMT 47.412369 -1.290756 26,875 3 389 1856
2019-11-08 08:53:34 GMT 47.401398 -1.291668 26,725 3 388 1920
2019-11-08 08:53:30 GMT 47.395294 -1.292130 26,550 3 387 1984
2019-11-08 08:53:24 GMT 47.383614 -1.293077 26,375 3 386 1856
2019-11-08 08:53:20 GMT 47.377304 -1.293571 26,250 3 385 1792
2019-11-08 08:53:13 GMT 47.364670 -1.294601 26,075 3 384 2048
2019-11-08 08:53:10 GMT 47.359039 -1.295013 25,900 3 383 2112
2019-11-08 08:53:03 GMT 47.346680 -1.296043 25,700 3 383 2176
2019-11-08 08:53:00 GMT 47.340729 -1.296524 25,525 3 382 2368
2019-11-08 08:52:56 GMT 47.331940 -1.297232 25,175 3 382 2432
2019-11-08 08:52:49 GMT 47.322556 -1.297966 25,150 3 382 2560
2019-11-08 08:52:43 GMT 47.310562 -1.298927 24,825 3 382 2240
2019-11-08 08:52:39 GMT 47.304054 -1.299415 24,700 2 382 2112
2019-11-08 08:52:32 GMT 47.292068 -1.300369 24,375 3 380 1856
2019-11-08 08:52:29 GMT 47.286346 -1.300781 24,375 3 379 2048
2019-11-08 08:52:22 GMT 47.274536 -1.301743 23,975 3 374 1728
2019-11-08 08:52:18 GMT 47.267258 -1.302292 23,975 3 374 1728
2019-11-08 08:52:12 GMT 47.256664 -1.303148 23,800 3 375 1728
2019-11-08 08:52:08 GMT 47.249729 -1.303641 23,725 3 374 1728
2019-11-08 08:52:01 GMT 47.237183 -1.304626 23,450 3 371 1984
2019-11-08 08:51:58 GMT 47.231964 -1.305038 23,350 3 370 2048
2019-11-08 08:51:54 GMT 47.226059 -1.305519 23,075 3 369 1984
2019-11-08 08:51:50 GMT 47.218277 -1.306137 23,100 3 363 1920
2019-11-08 08:51:47 GMT 47.214615 -1.306412 23,025 3 365 1728
2019-11-08 08:51:42 GMT 47.204948 -1.307232 22,775 3 362 2112
2019-11-08 08:51:37 GMT 47.196625 -1.307854 22,700 3 361 2112
2019-11-08 08:51:32 GMT 47.187836 -1.308609 22,375 3 359 2240
2019-11-08 08:51:29 GMT 47.177528 -1.309415 22,275 3 357 2560
2019-11-08 08:51:20 GMT 47.169289 -1.310049 22,050 3 356 2560
2019-11-08 08:51:16 GMT 47.162582 -1.310613 21,875 3 356 2624
2019-11-08 08:51:12 GMT 47.155197 -1.311218 21,675 3 355 2624
2019-11-08 08:51:08 GMT 47.149063 -1.311699 21,325 3 354 2752
2019-11-08 08:51:01 GMT 47.137260 -1.312585 21,075 3 353 2560
2019-11-08 08:50:57 GMT 47.131535 -1.313077 21,025 3 352 2496
2019-11-08 08:50:51 GMT 47.120728 -1.313896 20,675 3 351 2880
2019-11-08 08:50:47 GMT 47.115463 -1.314308 20,575 3 351 2944
2019-11-08 08:50:41 GMT 47.103973 -1.315190 20,250 2 351 2176
2019-11-08 08:50:38 GMT 47.098434 -1.315613 20,125 2 351 1856
2019-11-08 08:50:35 GMT 47.093548 -1.315965 20,050 2 350 1280
2019-11-08 08:50:30 GMT 47.087585 -1.316437 19,975 2 349 832
2019-11-08 08:50:27 GMT 47.081772 -1.316880 19,950 2 348 768
2019-11-08 08:50:24 GMT 47.077675 -1.317162 19,900 2 348 768
2019-11-08 08:50:20 GMT 47.072021 -1.317604 19,850 3 348 768
2019-11-08 08:50:17 GMT 47.065613 -1.318085 19,800 3 348 768
2019-11-08 08:50:11 GMT 47.056320 -1.318840 19,725 3 348 704
2019-11-08 08:50:08 GMT 47.052795 -1.319115 19,625 3 348 704
2019-11-08 08:50:04 GMT 47.041122 -1.320007 19,625 2 351 640
2019-11-08 08:50:01 GMT 47.036335 -1.320402 19,550 2 349 640
2019-11-08 08:49:58 GMT 47.036335 -1.320402 19,575 2 349 640
2019-11-08 08:49:55 GMT 47.031307 -1.320754 19,550 2 350 640
2019-11-08 08:49:51 GMT 47.023956 -1.321312 19,500 2 350 640
2019-11-08 08:49:45 GMT 47.015293 -1.322021 19,475 3 350 704
2019-11-08 08:49:41 GMT 47.008030 -1.322585 19,425 3 350 832
2019-11-08 08:49:38 GMT 47.002991 -1.322960 19,350 3 341 2240
2019-11-08 08:49:34 GMT 46.995415 -1.323571 19,250 3 347 2304
2019-11-08 08:49:30 GMT 46.990082 -1.323990 18,575 3 347 2368
2019-11-08 08:49:27 GMT 46.985916 -1.324275 19,000 2 346 2368
2019-11-08 08:49:23 GMT 46.978935 -1.324838 18,850 3 346 2240
2019-11-08 08:49:19 GMT 46.974003 -1.325261 18,625 3 345 2240
2019-11-08 08:49:15 GMT 46.965042 -1.325912 18,500 3 345 2368
2019-11-08 08:49:07 GMT 46.953552 -1.326805 18,225 3 344 2304
2019-11-08 08:49:02 GMT 46.946629 -1.327374 17,925 3 344 2240
2019-11-08 08:48:57 GMT 46.938858 -1.327972 17,750 3 343 2304
2019-11-08 08:48:54 GMT 46.931824 -1.328571 17,700 3 342 2304
2019-11-08 08:48:49 GMT 46.925308 -1.329071 17,550 3 342 2240
2019-11-08 08:48:46 GMT 46.921417 -1.329346 17,500 3 342 2240
2019-11-08 08:48:41 GMT 46.910751 -1.330170 17,200 3 338 2304
2019-11-08 08:48:36 GMT 46.904545 -1.330684 17,050 3 339 2304
2019-11-08 08:48:29 GMT 46.893513 -1.331529 16,800 3 336 2368
2019-11-08 08:48:26 GMT 46.889145 -1.331886 16,675 3 334 2880
2019-11-08 08:48:20 GMT 46.879967 -1.332585 16,400 2 331 2816
2019-11-08 08:48:15 GMT 46.873028 -1.333149 16,175 2 332 2816
2019-11-08 08:48:07 GMT 46.860786 -1.334084 15,650 3 322 3072
2019-11-08 08:48:04 GMT 46.856415 -1.334370 15,650 3 328 3072
2019-11-08 08:47:59 GMT 46.848682 -1.334976 15,400 3 327 3072
2019-11-08 08:47:55 GMT 46.841949 -1.335509 15,175 3 324 2944
2019-11-08 08:47:49 GMT 46.833206 -1.336179 14,900 3 318 2688
2019-11-08 08:47:44 GMT 46.825195 -1.336849 14,775 3 321 3008
2019-11-08 08:47:34 GMT 46.810318 -1.337987 14,150 3 315 3456
2019-11-08 08:47:26 GMT 46.798737 -1.338858 13,525 3 313 0
2019-11-08 08:47:23 GMT 46.794823 -1.339165 13,525 3 313 3712
2019-11-08 08:47:17 GMT 46.784683 -1.339930 13,075 3 313 4224
2019-11-08 08:47:14 GMT 46.781277 -1.340263 12,925 3 313 3840
2019-11-08 08:47:03 GMT 46.766193 -1.341431 12,200 3 314 4352
2019-11-08 08:46:53 GMT 46.752045 -1.342543 11,550 3 315 3072
2019-11-08 08:46:45 GMT 46.740494 -1.343491 11,275 3 312 1408
2019-11-08 08:46:35 GMT 46.725906 -1.344552 11,025 2 309 768
2019-11-08 08:46:32 GMT 46.721375 -1.344954 11,000 2 308 256
2019-11-08 08:46:22 GMT 46.707458 -1.345959 11,000 2 306 0
2019-11-08 08:46:12 GMT 46.693085 -1.347031 11,000 2 306 0
2019-11-08 08:46:04 GMT 46.681839 -1.347954 11,000 3 305 0
2019-11-08 08:45:54 GMT 46.667267 -1.349108 11,000 3 305 0
2019-11-08 08:45:51 GMT 46.662704 -1.349464 11,000 3 305 0
2019-11-08 08:45:46 GMT 46.655350 -1.350082 11,000 3 305 0
2019-11-08 08:45:41 GMT 46.649345 -1.350563 11,000 3 305 0
2019-11-08 08:45:33 GMT 46.638081 -1.351387 11,000 3 305 0
2019-11-08 08:45:28 GMT 46.631104 -1.351921 11,000 3 305 0
2019-11-08 08:45:21 GMT 46.620712 -1.352725 11,000 3 305 0
2019-11-08 08:45:12 GMT 46.608490 -1.353663 11,000 2 306 0
2019-11-08 08:45:09 GMT 46.604237 -1.353996 11,000 2 306 0
2019-11-08 08:45:00 GMT 46.591576 -1.354958 11,000 2 306 0
2019-11-08 08:44:52 GMT 46.580029 -1.355782 11,000 2 307 0
2019-11-08 08:44:40 GMT 46.562477 -1.357018 11,000 2 307 0
2019-11-08 08:44:30 GMT 46.548141 -1.357910 11,000 2 308 -64
2019-11-08 08:44:25 GMT 46.540226 -1.358391 11,000 2 308 0
2019-11-08 08:44:20 GMT 46.533665 -1.358803 11,000 2 309 0
2019-11-08 08:44:09 GMT 46.518997 -1.359759 11,000 2 309 0
2019-11-08 08:43:58 GMT 46.503571 -1.360764 11,000 2 308 0
2019-11-08 08:43:55 GMT 46.498123 -1.361166 11,000 3 308 0
2019-11-08 08:43:48 GMT 46.488274 -1.362030 11,000 5 309 0
2019-11-08 08:43:42 GMT 46.479080 -1.363109 11,000 3 306 -128
2019-11-08 08:43:38 GMT 46.473862 -1.363845 11,000 5 309 0
2019-11-08 08:43:34 GMT 46.467464 -1.364708 11,000 5 308 0
2019-11-08 08:43:27 GMT 46.458809 -1.365944 11,000 5 307 -64
2019-11-08 08:43:24 GMT 46.453827 -1.366631 11,000 4 306 -64
2019-11-08 08:43:19 GMT 46.438156 -1.368066 10,925 2 306 -128
2019-11-08 08:43:13 GMT 46.438156 -1.368066 11,025 0 306 448
2019-11-08 08:43:09 GMT 46.433167 -1.367999 10,975 0 307 640
2019-11-08 08:43:04 GMT 46.425522 -1.367867 10,925 0 309 640
2019-11-08 08:42:57 GMT 46.416817 -1.367661 10,875 0 310 320
2019-11-08 08:42:53 GMT 46.410278 -1.367530 10,850 0 310 448
2019-11-08 08:42:48 GMT 46.403549 -1.367396 10,800 0 310 448
2019-11-08 08:42:44 GMT 46.396408 -1.367195 10,775 359 309 512
2019-11-08 08:42:36 GMT 46.386246 -1.366927 10,725 359 308 448
2019-11-08 08:42:33 GMT 46.381252 -1.366768 10,700 359 307 448
2019-11-08 08:42:28 GMT 46.374756 -1.366592 10,625 359 306 448
2019-11-08 08:42:22 GMT 46.366028 -1.366356 10,600 359 305 448
2019-11-08 08:42:16 GMT 46.357883 -1.366150 10,575 359 304 512
2019-11-08 08:42:08 GMT 46.345779 -1.365788 10,475 359 301 512
2019-11-08 08:42:05 GMT 46.342117 -1.365721 10,475 359 300 448
2019-11-08 08:42:02 GMT 46.338181 -1.365587 10,450 0 299 448
2019-11-08 08:41:57 GMT 46.330975 -1.365395 10,400 0 275 832
2019-11-08 08:41:53 GMT 46.323761 -1.365252 10,375 0 293 448
2019-11-08 08:41:46 GMT 46.316963 -1.365189 10,350 0 287 448
2019-11-08 08:41:42 GMT 46.310539 -1.365051 10,300 0 281 576
2019-11-08 08:41:36 GMT 46.302841 -1.364917 10,175 0 259 3392
2019-11-08 08:41:31 GMT 46.296898 -1.364777 10,125 0 260 2752
2019-11-08 08:41:26 GMT 46.278397 -1.365051 9,750 0 259 3392
2019-11-08 08:41:16 GMT 46.278397 -1.365051 9,375 3 256 3392
2019-11-08 08:41:06 GMT 46.266724 -1.365989 8,825 3 251 3136
2019-11-08 08:40:55 GMT 46.254723 -1.366905 8,275 2 245 3072
2019-11-08 08:40:44 GMT 46.242828 -1.367597 7,900 0 231 1536
2019-11-08 08:40:34 GMT 46.232758 -1.365654 7,625 341 210 2304
2019-11-08 08:40:24 GMT 46.224277 -1.359352 7,075 321 204 3648
2019-11-08 08:40:14 GMT 46.217834 -1.348639 6,450 299 207 3520
2019-11-08 08:40:04 GMT 46.213757 -1.336006 5,825 294 204 3648
2019-11-08 08:39:54 GMT 46.209824 -1.323183 5,250 294 201 2880
2019-11-08 08:39:43 GMT 46.205933 -1.310522 4,750 294 196 3392
2019-11-08 08:39:33 GMT 46.202179 -1.298061 4,075 295 198 3712
2019-11-08 08:39:22 GMT 46.198254 -1.285744 3,550 295 193 2624
2019-11-08 08:39:12 GMT 46.194397 -1.273811 2,925 296 194 3392
2019-11-08 08:39:02 GMT 46.190552 -1.262088 2,550 296 186 1600
2019-11-08 08:38:51 GMT 46.186756 -1.250450 2,225 295 175 1856
2019-11-08 08:38:41 GMT 46.183403 -1.239807 1,925 295 162 2048
2019-11-08 08:38:30 GMT 46.180473 -1.229507 1,550 287 152 2368

Making use of Plane Finder data

You are free to use the raw flight data, aircraft information and images provided in this report for your own purposes provided the data is correctly attributed to Plane Finder. We ask that you please credit Plane Finder and link to planefinder.net in close proximity to the content.

Optionally one of the following logos (no smaller then 150x24px) can be used and must link to planefinder.net

Embedding the Plane Finder map

You are welcome to embed the Plane Finder playback map on your website to offer visitors a more interactive experience. We suggest using the following HTML code:

<iframe src="//planefinder.net/data/report/FR8747-EI-DWO-7700-squawk-2019-11-08/map" width="800" height="600" seamless="seamless"></iframe>

Where our data comes from

Plane Finder has a global network of data feeds and antenna radars that receive data broadcast directly from aircraft. The primary technologies used are ADS-B and MLAT. We also show feeds from the FAA and a FLARM glider feed.

Click here to find out more about the Plane Finder network.

How we collect our data